Observation data for Fort Chadbourne on 11/18/2019      Previous  Date       Current Mesonet Observations  Soil Data  Daily Summary Page  Observations in Plain Language
KCH1 180600Z 29002KT 03/02 A3009 RMK A01 T00320023  RH  093%=      5-min Rain = 0
KCH1 180601Z 29002KT 03/03 A3009 RMK A01 T00330025  RH  094%=      5-min Rain = 0
KCH1 180602Z 28003KT 04/03 A3009 RMK A01 T00350027  RH  095%=      5-min Rain = 0
KCH1 180603Z 28003KT 04/03 A3009 RMK A01 T00350027  RH  094%=      5-min Rain = 0
KCH1 180604Z 28003KT 04/03 A3009 RMK A01 T00360027  RH  094%=      5-min Rain = 0
KCH1 180605Z 28003KT 04/03 A3009 RMK A01 T00370029  RH  095%=      5-min Rain = 0
KCH1 180606Z 29004KT 04/03 A3009 RMK A01 T00380030  RH  095%=      5-min Rain = 0
KCH1 180607Z 29004KT 04/03 A3009 RMK A01 T00380030  RH  094%=      5-min Rain = 0
KCH1 180608Z 29004KT 04/03 A3009 RMK A01 T00390030  RH  094%=      5-min Rain = 0
KCH1 180609Z 29005KT 04/03 A3008 RMK A01 T00390031  RH  094%=      5-min Rain = 0
KCH1 180610Z 30005KT 04/03 A3008 RMK A01 T00400032  RH  094%=      5-min Rain = 0
KCH1 180611Z 30005KT 04/03 A3008 RMK A01 T00410032  RH  094%=      5-min Rain = 0
KCH1 180612Z 30004KT 04/03 A3008 RMK A01 T00410032  RH  094%=      5-min Rain = 0
KCH1 180613Z 31005KT 04/03 A3008 RMK A01 T00410032  RH  094%=      5-min Rain = 0
KCH1 180614Z 30005KT 04/03 A3008 RMK A01 T00420034  RH  094%=      5-min Rain = 0
KCH1 180615Z 30005KT 04/04 A3008 RMK A01 T00440035  RH  094%=      5-min Rain = 0
KCH1 180616Z 30005KT 05/04 A3008 RMK A01 T00450036  RH  094%=      5-min Rain = 0
KCH1 180617Z 30005KT 05/04 A3008 RMK A01 T00450036  RH  094%=      5-min Rain = 0
KCH1 180618Z 31005KT 05/04 A3008 RMK A01 T00450036  RH  093%=      5-min Rain = 0
KCH1 180619Z 30004KT 05/04 A3008 RMK A01 T00450035  RH  093%=      5-min Rain = 0
KCH1 180620Z 31004KT 05/04 A3008 RMK A01 T00450035  RH  093%=      5-min Rain = 0
KCH1 180621Z 31004KT 05/04 A3008 RMK A01 T00450035  RH  093%=      5-min Rain = 0
KCH1 180622Z 30004KT 05/03 A3008 RMK A01 T00450034  RH  093%=      5-min Rain = 0
KCH1 180623Z 29004KT 05/03 A3008 RMK A01 T00450034  RH  093%=      5-min Rain = 0
KCH1 180624Z 29004KT 04/03 A3008 RMK A01 T00440034  RH  093%=      5-min Rain = 0
KCH1 180625Z 29004KT 04/03 A3008 RMK A01 T00440033  RH  093%=      5-min Rain = 0
KCH1 180626Z 29004KT 04/03 A3008 RMK A01 T00440034  RH  093%=      5-min Rain = 0
KCH1 180627Z 30004KT 04/03 A3008 RMK A01 T00440034  RH  093%=      5-min Rain = 0
KCH1 180628Z 30005KT 04/03 A3008 RMK A01 T00440034  RH  093%=      5-min Rain = 0
KCH1 180629Z 30004KT 04/03 A3008 RMK A01 T00440034  RH  093%=      5-min Rain = 0
KCH1 180630Z 30004KT 04/03 A3008 RMK A01 T00440034  RH  093%=      5-min Rain = 0
KCH1 180631Z 30003KT 04/03 A3008 RMK A01 T00440034  RH  093%=      5-min Rain = 0
KCH1 180632Z 31004KT 04/03 A3008 RMK A01 T00440034  RH  093%=      5-min Rain = 0
KCH1 180633Z 31004KT 04/03 A3008 RMK A01 T00440034  RH  093%=      5-min Rain = 0
KCH1 180634Z 32002KT 04/03 A3008 RMK A01 T00430030  RH  091%=      5-min Rain = 0
KCH1 180635Z 32003KT 04/02 A3008 RMK A01 T00370019  RH  088%=      5-min Rain = 0
KCH1 180636Z 32002KT 03/01 A3008 RMK A01 T00330014  RH  087%=      5-min Rain = 0
KCH1 180637Z 31002KT 03/01 A3008 RMK A01 T00300014  RH  089%=      5-min Rain = 0
KCH1 180638Z 30002KT 03/02 A3008 RMK A01 T00300017  RH  091%=      5-min Rain = 0
KCH1 180639Z 29002KT 03/02 A3008 RMK A01 T00320022  RH  093%=      5-min Rain = 0
KCH1 180640Z 28003KT 03/02 A3008 RMK A01 T00330024  RH  094%=      5-min Rain = 0
KCH1 180641Z 28004KT 03/03 A3008 RMK A01 T00340026  RH  095%=      5-min Rain = 0
KCH1 180642Z 29004KT 04/03 A3008 RMK A01 T00350028  RH  095%=      5-min Rain = 0
KCH1 180643Z 29004KT 04/03 A3008 RMK A01 T00360029  RH  095%=      5-min Rain = 0
KCH1 180644Z 29003KT 04/03 A3008 RMK A01 T00370030  RH  096%=      5-min Rain = 0
KCH1 180645Z 30003KT 04/03 A3008 RMK A01 T00380032  RH  096%=      5-min Rain = 0
KCH1 180646Z 30003KT 04/03 A3008 RMK A01 T00390032  RH  096%=      5-min Rain = 0
KCH1 180647Z 31002KT 04/03 A3008 RMK A01 T00390033  RH  095%=      5-min Rain = 0
KCH1 180648Z 30002KT 04/03 A3008 RMK A01 T00390032  RH  095%=      5-min Rain = 0
KCH1 180649Z 31002KT 04/03 A3008 RMK A01 T00390030  RH  094%=      5-min Rain = 0
KCH1 180650Z 31002KT 04/03 A3008 RMK A01 T00370027  RH  093%=      5-min Rain = 0
KCH1 180651Z 30002KT 04/02 A3008 RMK A01 T00350023  RH  092%=      5-min Rain = 0
KCH1 180652Z 30002KT 03/02 A3008 RMK A01 T00340023  RH  092%=      5-min Rain = 0
KCH1 180653Z 29002KT 03/02 A3008 RMK A01 T00340024  RH  093%=      5-min Rain = 0
KCH1 180654Z 29002KT 03/02 A3008 RMK A01 T00340024  RH  094%=      5-min Rain = 0
KCH1 180655Z 29002KT 03/03 A3007 RMK A01 T00340025  RH  094%=      5-min Rain = 0
KCH1 180656Z 29002KT 03/03 A3007 RMK A01 T00340026  RH  094%=      5-min Rain = 0
KCH1 180657Z 30002KT 03/03 A3007 RMK A01 T00340026  RH  095%=      5-min Rain = 0
KCH1 180658Z 31002KT 03/03 A3007 RMK A01 T00340026  RH  095%=      5-min Rain = 0
KCH1 180659Z 31003KT 03/03 A3007 RMK A01 T00340027  RH  095%=      5-min Rain = 0
KCH1 180700Z 31002KT 04/03 A3007 RMK A01 T00350028  RH  095%=      5-min Rain = 0
KCH1 180701Z 31002KT 04/03 A3007 RMK A01 T00350028  RH  096%=      5-min Rain = 0
KCH1 180702Z 30002KT 03/03 A3007 RMK A01 T00340027  RH  095%=      5-min Rain = 0
KCH1 180703Z 30001KT 03/03 A3007 RMK A01 T00340027  RH  095%=      5-min Rain = 0
KCH1 180704Z 31002KT 03/03 A3007 RMK A01 T00340027  RH  095%=      5-min Rain = 0
KCH1 180705Z 31001KT 03/03 A3007 RMK A01 T00340027  RH  095%=      5-min Rain = 0
KCH1 180706Z 31002KT 03/03 A3007 RMK A01 T00340027  RH  095%=      5-min Rain = 0
KCH1 180707Z 31002KT 03/03 A3007 RMK A01 T00340027  RH  096%=      5-min Rain = 0
KCH1 180708Z 32002KT 03/03 A3007 RMK A01 T00330027  RH  096%=      5-min Rain = 0
KCH1 180709Z 32002KT 03/03 A3007 RMK A01 T00340028  RH  096%=      5-min Rain = 0
KCH1 180710Z 33002KT 03/03 A3007 RMK A01 T00330026  RH  095%=      5-min Rain = 0
KCH1 180711Z 33003KT 03/02 A3007 RMK A01 T00310023  RH  095%=      5-min Rain = 0
KCH1 180712Z 33003KT 03/02 A3007 RMK A01 T00300023  RH  095%=      5-min Rain = 0
KCH1 180713Z 32003KT 03/02 A3007 RMK A01 T00300024  RH  095%=      5-min Rain = 0
KCH1 180714Z 32003KT 03/03 A3007 RMK A01 T00310025  RH  096%=      5-min Rain = 0
KCH1 180715Z 32004KT 03/03 A3007 RMK A01 T00310026  RH  096%=      5-min Rain = 0
KCH1 180716Z 33003KT 03/03 A3007 RMK A01 T00320026  RH  096%=      5-min Rain = 0
KCH1 180717Z 32004KT 03/03 A3007 RMK A01 T00320026  RH  096%=      5-min Rain = 0
KCH1 180718Z 32003KT 03/03 A3007 RMK A01 T00320025  RH  096%=      5-min Rain = 0
KCH1 180719Z 32003KT 03/03 A3007 RMK A01 T00320025  RH  096%=      5-min Rain = 0
KCH1 180720Z 32003KT 03/03 A3007 RMK A01 T00310025  RH  096%=      5-min Rain = 0
KCH1 180721Z 32003KT 03/03 A3006 RMK A01 T00310025  RH  096%=      5-min Rain = 0
KCH1 180722Z 31003KT 03/03 A3006 RMK A01 T00310025  RH  096%=      5-min Rain = 0
KCH1 180723Z 31003KT 03/03 A3006 RMK A01 T00310025  RH  096%=      5-min Rain = 0
KCH1 180724Z 30004KT 03/03 A3007 RMK A01 T00320026  RH  096%=      5-min Rain = 0
KCH1 180725Z 30004KT 03/03 A3007 RMK A01 T00320027  RH  096%=      5-min Rain = 0
KCH1 180726Z 30004KT 03/03 A3007 RMK A01 T00320027  RH  096%=      5-min Rain = 0
KCH1 180727Z 30004KT 03/03 A3006 RMK A01 T00320027  RH  096%=      5-min Rain = 0
KCH1 180728Z 30004KT 03/03 A3006 RMK A01 T00330027  RH  096%=      5-min Rain = 0
KCH1 180729Z 30004KT 03/03 A3006 RMK A01 T00330027  RH  096%=      5-min Rain = 0
KCH1 180730Z 30004KT 03/03 A3006 RMK A01 T00330027  RH  096%=      5-min Rain = 0
KCH1 180731Z 31003KT 03/03 A3006 RMK A01 T00330028  RH  096%=      5-min Rain = 0
KCH1 180732Z 31003KT 03/03 A3006 RMK A01 T00330028  RH  096%=      5-min Rain = 0
KCH1 180733Z 31003KT 03/03 A3006 RMK A01 T00330028  RH  096%=      5-min Rain = 0
KCH1 180734Z 30002KT 03/03 A3006 RMK A01 T00330028  RH  096%=      5-min Rain = 0
KCH1 180735Z 30003KT 03/03 A3006 RMK A01 T00340028  RH  096%=      5-min Rain = 0
KCH1 180736Z 30003KT 03/03 A3006 RMK A01 T00340028  RH  096%=      5-min Rain = 0
KCH1 180737Z 30003KT 03/03 A3006 RMK A01 T00340028  RH  096%=      5-min Rain = 0
KCH1 180738Z 31003KT 03/03 A3006 RMK A01 T00340028  RH  096%=      5-min Rain = 0
KCH1 180739Z 31003KT 03/03 A3006 RMK A01 T00340029  RH  096%=      5-min Rain = 0
KCH1 180740Z 31003KT 03/03 A3006 RMK A01 T00340029  RH  097%=      5-min Rain = 0
KCH1 180741Z 31003KT 03/03 A3006 RMK A01 T00340029  RH  097%=      5-min Rain = 0
KCH1 180742Z 31003KT 03/03 A3006 RMK A01 T00340029  RH  096%=      5-min Rain = 0
KCH1 180743Z 31003KT 04/03 A3006 RMK A01 T00350029  RH  096%=      5-min Rain = 0
KCH1 180744Z 31002KT 03/03 A3006 RMK A01 T00340029  RH  096%=      5-min Rain = 0
KCH1 180745Z 31003KT 03/03 A3006 RMK A01 T00340028  RH  096%=      5-min Rain = 0
KCH1 180746Z 31002KT 03/03 A3006 RMK A01 T00340028  RH  096%=      5-min Rain = 0
KCH1 180747Z 31002KT 03/03 A3006 RMK A01 T00340028  RH  096%=      5-min Rain = 0
KCH1 180748Z 32002KT 03/03 A3006 RMK A01 T00330028  RH  096%=      5-min Rain = 0
KCH1 180749Z 32002KT 03/03 A3006 RMK A01 T00330027  RH  096%=      5-min Rain = 0
KCH1 180750Z 33002KT 03/03 A3006 RMK A01 T00320027  RH  096%=      5-min Rain = 0
KCH1 180751Z 34002KT 03/03 A3006 RMK A01 T00320027  RH  096%=      5-min Rain = 0
KCH1 180752Z 34002KT 03/03 A3006 RMK A01 T00320026  RH  096%=      5-min Rain = 0
KCH1 180753Z 34002KT 03/02 A3006 RMK A01 T00300024  RH  096%=      5-min Rain = 0
KCH1 180754Z 33002KT 03/02 A3006 RMK A01 T00270020  RH  095%=      5-min Rain = 0
KCH1 180755Z 32002KT 03/02 A3006 RMK A01 T00260019  RH  095%=      5-min Rain = 0
KCH1 180756Z 31001KT 03/02 A3006 RMK A01 T00260020  RH  096%=      5-min Rain = 0
KCH1 180757Z 31001KT 03/02 A3006 RMK A01 T00260020  RH  096%=      5-min Rain = 0
KCH1 180758Z 31001KT 03/02 A3006 RMK A01 T00260019  RH  096%=      5-min Rain = 0
KCH1 180759Z 30001KT 03/02 A3006 RMK A01 T00250019  RH  096%=      5-min Rain = 0
KCH1 180800Z 29001KT 03/02 A3006 RMK A01 T00260021  RH  096%=      5-min Rain = 0
KCH1 180801Z 29001KT 03/02 A3006 RMK A01 T00270022  RH  097%=      5-min Rain = 0
KCH1 180802Z 30001KT 03/02 A3006 RMK A01 T00270022  RH  097%=      5-min Rain = 0
KCH1 180803Z 30001KT 03/02 A3006 RMK A01 T00270023  RH  097%=      5-min Rain = 0
KCH1 180804Z 31001KT 03/03 A3006 RMK A01 T00290025  RH  098%=      5-min Rain = 0
KCH1 180805Z 31002KT 03/03 A3006 RMK A01 T00300026  RH  098%=      5-min Rain = 0
KCH1 180806Z 31002KT 03/03 A3006 RMK A01 T00300027  RH  098%=      5-min Rain = 0
KCH1 180807Z 30002KT 03/03 A3006 RMK A01 T00300027  RH  098%=      5-min Rain = 0
KCH1 180808Z 30002KT 03/03 A3006 RMK A01 T00300027  RH  098%=      5-min Rain = 0
KCH1 180809Z 30003KT 03/03 A3006 RMK A01 T00300027  RH  098%=      5-min Rain = 0
KCH1 180810Z 30003KT 03/03 A3006 RMK A01 T00310028  RH  098%=      5-min Rain = 0
KCH1 180811Z 30003KT 03/03 A3005 RMK A01 T00320029  RH  098%=      5-min Rain = 0
KCH1 180812Z 30003KT 03/03 A3005 RMK A01 T00320028  RH  098%=      5-min Rain = 0
KCH1 180813Z 29002KT 03/03 A3005 RMK A01 T00320028  RH  097%=      5-min Rain = 0
KCH1 180814Z 30002KT 03/03 A3005 RMK A01 T00320028  RH  097%=      5-min Rain = 0
KCH1 180815Z 30002KT 03/03 A3005 RMK A01 T00320028  RH  097%=      5-min Rain = 0
KCH1 180816Z 30002KT 03/03 A3005 RMK A01 T00320028  RH  097%=      5-min Rain = 0
KCH1 180817Z 31002KT 03/03 A3005 RMK A01 T00320028  RH  097%=      5-min Rain = 0
KCH1 180818Z 31002KT 03/03 A3005 RMK A01 T00320028  RH  097%=      5-min Rain = 0
KCH1 180819Z 31002KT 03/03 A3005 RMK A01 T00320028  RH  097%=      5-min Rain = 0
KCH1 180820Z 31002KT 03/03 A3005 RMK A01 T00320028  RH  097%=      5-min Rain = 0
KCH1 180821Z 31002KT 03/03 A3005 RMK A01 T00320028  RH  097%=      5-min Rain = 0
KCH1 180822Z 30002KT 03/03 A3005 RMK A01 T00320028  RH  097%=      5-min Rain = 0
KCH1 180823Z 29003KT 03/03 A3005 RMK A01 T00320028  RH  097%=      5-min Rain = 0
KCH1 180824Z 29003KT 03/03 A3005 RMK A01 T00320028  RH  097%=      5-min Rain = 0
KCH1 180825Z 29003KT 03/03 A3005 RMK A01 T00320028  RH  097%=      5-min Rain = 0
KCH1 180826Z 28003KT 03/03 A3005 RMK A01 T00320028  RH  097%=      5-min Rain = 0
KCH1 180827Z 29003KT 03/03 A3005 RMK A01 T00310027  RH  097%=      5-min Rain = 0
KCH1 180828Z 29003KT 03/03 A3005 RMK A01 T00310027  RH  097%=      5-min Rain = 0
KCH1 180829Z 29003KT 03/03 A3005 RMK A01 T00310027  RH  097%=      5-min Rain = 0
KCH1 180830Z 29004KT 03/03 A3005 RMK A01 T00310027  RH  097%=      5-min Rain = 0
KCH1 180831Z 29004KT 03/03 A3005 RMK A01 T00310027  RH  097%=      5-min Rain = 0
KCH1 180832Z 30003KT 03/03 A3005 RMK A01 T00310026  RH  097%=      5-min Rain = 0
KCH1 180833Z 30003KT 03/03 A3005 RMK A01 T00310026  RH  097%=      5-min Rain = 0
KCH1 180834Z 31003KT 03/03 A3005 RMK A01 T00300026  RH  097%=      5-min Rain = 0
KCH1 180835Z 30003KT 03/03 A3004 RMK A01 T00300026  RH  097%=      5-min Rain = 0
KCH1 180836Z 30002KT 03/03 A3004 RMK A01 T00300026  RH  097%=      5-min Rain = 0
KCH1 180837Z 30002KT 03/03 A3004 RMK A01 T00300025  RH  097%=      5-min Rain = 0
KCH1 180838Z 30003KT 03/03 A3004 RMK A01 T00300025  RH  097%=      5-min Rain = 0
KCH1 180839Z 30002KT 03/03 A3004 RMK A01 T00300026  RH  097%=      5-min Rain = 0
KCH1 180840Z 30002KT 03/03 A3004 RMK A01 T00300027  RH  097%=      5-min Rain = 0
KCH1 180841Z 31003KT 03/03 A3004 RMK A01 T00300026  RH  097%=      5-min Rain = 0
KCH1 180842Z 31003KT 03/03 A3004 RMK A01 T00300027  RH  098%=      5-min Rain = 0
KCH1 180843Z 31002KT 03/03 A3004 RMK A01 T00310027  RH  098%=      5-min Rain = 0
KCH1 180844Z 31002KT 03/03 A3004 RMK A01 T00310027  RH  098%=      5-min Rain = 0
KCH1 180845Z 31002KT 03/03 A3004 RMK A01 T00310027  RH  098%=      5-min Rain = 0
KCH1 180846Z 31001KT 03/03 A3004 RMK A01 T00310027  RH  098%=      5-min Rain = 0
KCH1 180847Z 31001KT 03/03 A3004 RMK A01 T00300027  RH  098%=      5-min Rain = 0
KCH1 180848Z 32001KT 03/03 A3004 RMK A01 T00300026  RH  097%=      5-min Rain = 0
KCH1 180849Z 32001KT 03/03 A3004 RMK A01 T00290025  RH  097%=      5-min Rain = 0
KCH1 180850Z 33001KT 03/02 A3004 RMK A01 T00270022  RH  096%=      5-min Rain = 0
KCH1 180851Z 34001KT 02/02 A3004 RMK A01 T00230016  RH  095%=      5-min Rain = 0
KCH1 180852Z 36002KT 02/01 A3004 RMK A01 T00210014  RH  095%=      5-min Rain = 0
KCH1 180853Z 36002KT 02/01 A3004 RMK A01 T00170008  RH  094%=      5-min Rain = 0
KCH1 180854Z 35002KT 01/00 A3004 RMK A01 T00130003  RH  093%=      5-min Rain = 0
KCH1 180855Z 35003KT 01/00 A3004 RMK A01 T00110002  RH  093%=      5-min Rain = 0
KCH1 180856Z 35003KT 01/00 A3004 RMK A01 T00100001  RH  094%=      5-min Rain = 0
KCH1 180857Z 35003KT 01/00 A3004 RMK A01 T00090001  RH  094%=      5-min Rain = 0
KCH1 180858Z 36003KT 01/00 A3004 RMK A01 T00090002  RH  095%=      5-min Rain = 0
KCH1 180859Z 35003KT 01/01 A3004 RMK A01 T00120007  RH  096%=      5-min Rain = 0
KCH1 180900Z 34003KT 01/01 A3004 RMK A01 T00140011  RH  097%=      5-min Rain = 0
KCH1 180901Z 33003KT 02/01 A3004 RMK A01 T00160014  RH  098%=      5-min Rain = 0
KCH1 180902Z 33003KT 02/02 A3004 RMK A01 T00180016  RH  098%=      5-min Rain = 0
KCH1 180903Z 33003KT 02/02 A3004 RMK A01 T00190018  RH  099%=      5-min Rain = 0
KCH1 180904Z 32003KT 02/02 A3004 RMK A01 T00200019  RH  099%=      5-min Rain = 0
KCH1 180905Z 32003KT 02/02 A3004 RMK A01 T00200018  RH  099%=      5-min Rain = 0
KCH1 180906Z 32003KT 02/02 A3004 RMK A01 T00210019  RH  099%=      5-min Rain = 0
KCH1 180907Z 32003KT 02/02 A3004 RMK A01 T00220021  RH  099%=      5-min Rain = 0
KCH1 180908Z 33003KT 02/02 A3004 RMK A01 T00240023  RH  099%=      5-min Rain = 0
KCH1 180909Z 34003KT 02/02 A3004 RMK A01 T00230021  RH  099%=      5-min Rain = 0
KCH1 180910Z 34003KT 02/01 A3004 RMK A01 T00170013  RH  097%=      5-min Rain = 0
KCH1 180911Z 33003KT 01/01 A3004 RMK A01 T00120006  RH  096%=      5-min Rain = 0
KCH1 180912Z 33002KT 01/01 A3004 RMK A01 T00110005  RH  096%=      5-min Rain = 0
KCH1 180913Z 32002KT 01/01 A3004 RMK A01 T00110007  RH  097%=      5-min Rain = 0
KCH1 180914Z 32002KT 01/01 A3004 RMK A01 T00140010  RH  098%=      5-min Rain = 0
KCH1 180915Z 32002KT 02/01 A3004 RMK A01 T00150012  RH  098%=      5-min Rain = 0
KCH1 180916Z 32002KT 02/01 A3004 RMK A01 T00160013  RH  098%=      5-min Rain = 0
KCH1 180917Z 31002KT 02/01 A3004 RMK A01 T00160014  RH  098%=      5-min Rain = 0
KCH1 180918Z 30002KT 02/01 A3004 RMK A01 T00170014  RH  098%=      5-min Rain = 0
KCH1 180919Z 30003KT 02/02 A3004 RMK A01 T00170015  RH  098%=      5-min Rain = 0
KCH1 180920Z 31003KT 02/02 A3004 RMK A01 T00170015  RH  098%=      5-min Rain = 0
KCH1 180921Z 31003KT 02/02 A3004 RMK A01 T00170015  RH  098%=      5-min Rain = 0
KCH1 180922Z 30003KT 02/02 A3004 RMK A01 T00180016  RH  099%=      5-min Rain = 0
KCH1 180923Z 30003KT 02/02 A3003 RMK A01 T00180017  RH  099%=      5-min Rain = 0
KCH1 180924Z 30003KT 02/02 A3003 RMK A01 T00200018  RH  099%=      5-min Rain = 0
KCH1 180925Z 30003KT 02/02 A3003 RMK A01 T00200019  RH  099%=      5-min Rain = 0
KCH1 180926Z 30004KT 02/02 A3003 RMK A01 T00210020  RH  099%=      5-min Rain = 0
KCH1 180927Z 30003KT 02/02 A3003 RMK A01 T00220021  RH  099%=      5-min Rain = 0
KCH1 180928Z 30003KT 02/02 A3003 RMK A01 T00230022  RH  099%=      5-min Rain = 0
KCH1 180929Z 31003KT 02/02 A3003 RMK A01 T00230022  RH  099%=      5-min Rain = 0
KCH1 180930Z 30003KT 02/02 A3003 RMK A01 T00230021  RH  099%=      5-min Rain = 0
KCH1 180931Z 30004KT 02/02 A3003 RMK A01 T00230021  RH  099%=      5-min Rain = 0
KCH1 180932Z 30004KT 02/02 A3003 RMK A01 T00240022  RH  099%=      5-min Rain = 0
KCH1 180933Z 30004KT 02/02 A3003 RMK A01 T00240023  RH  099%=      5-min Rain = 0
KCH1 180934Z 30004KT 03/02 A3003 RMK A01 T00260024  RH  099%=      5-min Rain = 0
KCH1 180935Z 30004KT 03/03 A3003 RMK A01 T00260025  RH  099%=      5-min Rain = 0
KCH1 180936Z 30004KT 03/03 A3003 RMK A01 T00260025  RH  099%=      5-min Rain = 0
KCH1 180937Z 31004KT 03/03 A3003 RMK A01 T00270025  RH  099%=      5-min Rain = 0
KCH1 180938Z 31004KT 03/03 A3003 RMK A01 T00270025  RH  099%=      5-min Rain = 0
KCH1 180939Z 31003KT 03/03 A3003 RMK A01 T00280026  RH  099%=      5-min Rain = 0
KCH1 180940Z 30003KT 03/03 A3003 RMK A01 T00280026  RH  099%=      5-min Rain = 0
KCH1 180941Z 30004KT 03/03 A3003 RMK A01 T00280026  RH  099%=      5-min Rain = 0
KCH1 180942Z 29004KT 03/03 A3003 RMK A01 T00280026  RH  099%=      5-min Rain = 0
KCH1 180943Z 29004KT 03/03 A3003 RMK A01 T00290027  RH  099%=      5-min Rain = 0
KCH1 180944Z 30004KT 03/03 A3003 RMK A01 T00280026  RH  099%=      5-min Rain = 0
KCH1 180945Z 30004KT 03/03 A3003 RMK A01 T00290027  RH  099%=      5-min Rain = 0
KCH1 180946Z 30004KT 03/03 A3003 RMK A01 T00280026  RH  098%=      5-min Rain = 0
KCH1 180947Z 30004KT 03/03 A3003 RMK A01 T00290026  RH  098%=      5-min Rain = 0
KCH1 180948Z 30003KT 03/03 A3003 RMK A01 T00290026  RH  098%=      5-min Rain = 0
KCH1 180949Z 30003KT 03/03 A3003 RMK A01 T00290026  RH  098%=      5-min Rain = 0
KCH1 180950Z 30003KT 03/03 A3003 RMK A01 T00290026  RH  098%=      5-min Rain = 0
KCH1 180951Z 31003KT 03/03 A3003 RMK A01 T00280025  RH  098%=      5-min Rain = 0
KCH1 180952Z 31003KT 03/02 A3003 RMK A01 T00270023  RH  097%=      5-min Rain = 0
KCH1 180953Z 32002KT 03/02 A3003 RMK A01 T00260021  RH  097%=      5-min Rain = 0
KCH1 180954Z 32003KT 02/02 A3003 RMK A01 T00240019  RH  096%=      5-min Rain = 0
KCH1 180955Z 32003KT 02/02 A3002 RMK A01 T00220016  RH  096%=      5-min Rain = 0
KCH1 180956Z 31003KT 02/01 A3002 RMK A01 T00200013  RH  095%=      5-min Rain = 0
KCH1 180957Z 30003KT 02/01 A3002 RMK A01 T00190013  RH  096%=      5-min Rain = 0
KCH1 180958Z 30003KT 02/01 A3002 RMK A01 T00190013  RH  096%=      5-min Rain = 0
KCH1 180959Z 30003KT 02/01 A3002 RMK A01 T00190013  RH  096%=      5-min Rain = 0
KCH1 181000Z 30003KT 02/01 A3002 RMK A01 T00190013  RH  096%=      5-min Rain = 0
KCH1 181001Z 30004KT 02/01 A3002 RMK A01 T00180013  RH  096%=      5-min Rain = 0
KCH1 181002Z 31003KT 02/02 A3002 RMK A01 T00200016  RH  097%=      5-min Rain = 0
KCH1 181003Z 31003KT 02/02 A3002 RMK A01 T00220019  RH  098%=      5-min Rain = 0
KCH1 181004Z 31002KT 02/02 A3002 RMK A01 T00220019  RH  098%=      5-min Rain = 0
KCH1 181005Z 31002KT 02/02 A3002 RMK A01 T00220018  RH  097%=      5-min Rain = 0
KCH1 181006Z 30002KT 02/02 A3002 RMK A01 T00220018  RH  098%=      5-min Rain = 0
KCH1 181007Z 30002KT 02/02 A3002 RMK A01 T00220018  RH  098%=      5-min Rain = 0
KCH1 181008Z 29002KT 02/02 A3002 RMK A01 T00220019  RH  098%=      5-min Rain = 0
KCH1 181009Z 29002KT 02/02 A3002 RMK A01 T00220019  RH  098%=      5-min Rain = 0
KCH1 181010Z 29002KT 02/02 A3003 RMK A01 T00220019  RH  098%=      5-min Rain = 0
KCH1 181011Z 30002KT 02/02 A3003 RMK A01 T00220019  RH  098%=      5-min Rain = 0
KCH1 181012Z 30002KT 02/02 A3003 RMK A01 T00220019  RH  098%=      5-min Rain = 0
KCH1 181013Z 31002KT 02/01 A3003 RMK A01 T00190014  RH  097%=      5-min Rain = 0
KCH1 181014Z 32002KT 02/01 A3003 RMK A01 T00150009  RH  096%=      5-min Rain = 0
KCH1 181015Z 32002KT 01/01 A3003 RMK A01 T00120005  RH  095%=      5-min Rain = 0
KCH1 181016Z 32002KT 01/00 A3003 RMK A01 T00090002  RH  095%=      5-min Rain = 0
KCH1 181017Z 32002KT 01/00 A3003 RMK A01 T00090002  RH  095%=      5-min Rain = 0
KCH1 181018Z 31001KT 01/01 A3002 RMK A01 T00110006  RH  097%=      5-min Rain = 0
KCH1 181019Z 31001KT 01/01 A3002 RMK A01 T00110007  RH  097%=      5-min Rain = 0
KCH1 181020Z 30000KT 01/01 A3002 RMK A01 T00100006  RH  097%=      5-min Rain = 0
KCH1 181021Z 00000KT 01/01 A3002 RMK A01 T00100005  RH  097%=      5-min Rain = 0
KCH1 181022Z 00000KT 01/00 A3002 RMK A01 T00080003  RH  096%=      5-min Rain = 0
KCH1 181023Z 00000KT 01/00 A3002 RMK A01 T000600-0  RH  096%=      5-min Rain = 0
KCH1 181024Z 00000KT 00/M00 A3002 RMK A01 T00031004  RH  095%=      5-min Rain = 0
KCH1 181025Z 00000KT 00/M01 A3002 RMK A01 T00011007  RH  095%=      5-min Rain = 0
KCH1 181026Z 00000KT M00/M01 A3002 RMK A01 T10011008  RH  095%=      5-min Rain = 0
KCH1 181027Z 00000KT M00/M01 A3002 RMK A01 T10021010  RH  095%=      5-min Rain = 0
KCH1 181028Z 00000KT M00/M01 A3002 RMK A01 T10021009  RH  095%=      5-min Rain = 0
KCH1 181029Z 00000KT M00/M01 A3002 RMK A01 T10021008  RH  096%=      5-min Rain = 0
KCH1 181030Z 02000KT M00/M01 A3002 RMK A01 T10021008  RH  096%=      5-min Rain = 0
KCH1 181031Z 02001KT M00/M01 A3002 RMK A01 T10021007  RH  096%=      5-min Rain = 0
KCH1 181032Z 02002KT M00/M01 A3002 RMK A01 T10021007  RH  096%=      5-min Rain = 0
KCH1 181033Z 36001KT M00/M01 A3002 RMK A01 T10021007  RH  096%=      5-min Rain = 0
KCH1 181034Z 35001KT M00/M01 A3002 RMK A01 T10031008  RH  096%=      5-min Rain = 0
KCH1 181035Z 35001KT M00/M01 A3002 RMK A01 T10031008  RH  096%=      5-min Rain = 0
KCH1 181036Z 35001KT M00/M01 A3002 RMK A01 T10031007  RH  097%=      5-min Rain = 0
KCH1 181037Z 36001KT M00/M01 A3002 RMK A01 T10011005  RH  097%=      5-min Rain = 0
KCH1 181038Z 36002KT 00/M00 A3002 RMK A01 T00011002  RH  098%=      5-min Rain = 0
KCH1 181039Z 36003KT 00/M00 A3002 RMK A01 T00011002  RH  098%=      5-min Rain = 0
KCH1 181040Z 35003KT 00/M00 A3002 RMK A01 T00011002  RH  098%=      5-min Rain = 0
KCH1 181041Z 34003KT 00/M00 A3002 RMK A01 T00011002  RH  098%=      5-min Rain = 0
KCH1 181042Z 32003KT 00/M00 A3002 RMK A01 T00011003  RH  098%=      5-min Rain = 0
KCH1 181043Z 31003KT 00/M00 A3002 RMK A01 T00011002  RH  098%=      5-min Rain = 0
KCH1 181044Z 31003KT 00/M00 A3002 RMK A01 T00021001  RH  098%=      5-min Rain = 0
KCH1 181045Z 32004KT 00/00 A3002 RMK A01 T00040002  RH  098%=      5-min Rain = 0
KCH1 181046Z 32004KT 01/00 A3002 RMK A01 T00060004  RH  099%=      5-min Rain = 0
KCH1 181047Z 33004KT 01/01 A3002 RMK A01 T00090008  RH  099%=      5-min Rain = 0
KCH1 181048Z 33004KT 01/01 A3002 RMK A01 T00120012  RH  100%=      5-min Rain = 0
KCH1 181049Z 34003KT 01/01 A3002 RMK A01 T00140013  RH  100%=      5-min Rain = 0
KCH1 181050Z 32002KT 01/01 A3002 RMK A01 T00120011  RH  099%=      5-min Rain = 0
KCH1 181051Z 30002KT 01/01 A3002 RMK A01 T00120010  RH  099%=      5-min Rain = 0
KCH1 181052Z 29002KT 01/01 A3002 RMK A01 T00110009  RH  099%=      5-min Rain = 0
KCH1 181053Z 28002KT 01/01 A3002 RMK A01 T00090008  RH  099%=      5-min Rain = 0
KCH1 181054Z 28003KT 01/01 A3002 RMK A01 T00110010  RH  099%=      5-min Rain = 0
KCH1 181055Z 29003KT 01/01 A3002 RMK A01 T00140013  RH  099%=      5-min Rain = 0
KCH1 181056Z 29003KT 02/02 A3002 RMK A01 T00150015  RH  100%=      5-min Rain = 0
KCH1 181057Z 29003KT 02/02 A3002 RMK A01 T00160015  RH  100%=      5-min Rain = 0
KCH1 181058Z 28003KT 02/02 A3001 RMK A01 T00160016  RH  100%=      5-min Rain = 0
KCH1 181059Z 28002KT 02/02 A3001 RMK A01 T00170017  RH  100%=      5-min Rain = 0
KCH1 181100Z 28002KT 02/02 A3001 RMK A01 T00170017  RH  100%=      5-min Rain = 0
KCH1 181101Z 28001KT 02/02 A3001 RMK A01 T00170016  RH  099%=      5-min Rain = 0
KCH1 181102Z 29001KT 02/01 A3001 RMK A01 T00150013  RH  099%=      5-min Rain = 0
KCH1 181103Z 27001KT 01/01 A3001 RMK A01 T00110009  RH  098%=      5-min Rain = 0
KCH1 181104Z 26002KT 01/01 A3001 RMK A01 T00090006  RH  098%=      5-min Rain = 0
KCH1 181105Z 26002KT 01/00 A3001 RMK A01 T00070003  RH  097%=      5-min Rain = 0
KCH1 181106Z 26002KT 01/00 A3001 RMK A01 T00050001  RH  097%=      5-min Rain = 0
KCH1 181107Z 27002KT 00/M00 A3001 RMK A01 T00041001  RH  097%=      5-min Rain = 0
KCH1 181108Z 28002KT 00/M00 A3001 RMK A01 T00031001  RH  097%=      5-min Rain = 0
KCH1 181109Z 28003KT 00/00 A3001 RMK A01 T00040001  RH  098%=      5-min Rain = 0
KCH1 181110Z 29002KT 01/00 A3001 RMK A01 T00060003  RH  098%=      5-min Rain = 0
KCH1 181111Z 30002KT 01/01 A3001 RMK A01 T00070005  RH  098%=      5-min Rain = 0
KCH1 181112Z 31002KT 01/01 A3001 RMK A01 T00080006  RH  099%=      5-min Rain = 0
KCH1 181113Z 31002KT 01/01 A3001 RMK A01 T00100008  RH  099%=      5-min Rain = 0
KCH1 181114Z 30002KT 01/01 A3001 RMK A01 T00120011  RH  099%=      5-min Rain = 0
KCH1 181115Z 30002KT 01/01 A3001 RMK A01 T00140013  RH  099%=      5-min Rain = 0
KCH1 181116Z 28002KT 01/01 A3002 RMK A01 T00140014  RH  100%=      5-min Rain = 0
KCH1 181117Z 28002KT 01/01 A3002 RMK A01 T00140014  RH  100%=      5-min Rain = 0
KCH1 181118Z 27002KT 02/01 A3002 RMK A01 T00150014  RH  100%=      5-min Rain = 0
KCH1 181119Z 27002KT 01/01 A3002 RMK A01 T00140013  RH  099%=      5-min Rain = 0
KCH1 181120Z 29002KT 01/01 A3002 RMK A01 T00140013  RH  099%=      5-min Rain = 0
KCH1 181121Z 31002KT 02/01 A3002 RMK A01 T00150014  RH  099%=      5-min Rain = 0
KCH1 181122Z 31002KT 02/01 A3002 RMK A01 T00150014  RH  100%=      5-min Rain = 0
KCH1 181123Z 31002KT 02/01 A3002 RMK A01 T00150014  RH  100%=      5-min Rain = 0
KCH1 181124Z 31002KT 01/01 A3002 RMK A01 T00140013  RH  099%=      5-min Rain = 0
KCH1 181125Z 30002KT 01/01 A3002 RMK A01 T00130011  RH  099%=      5-min Rain = 0
KCH1 181126Z 31002KT 01/01 A3002 RMK A01 T00110009  RH  099%=      5-min Rain = 0
KCH1 181127Z 30002KT 01/01 A3002 RMK A01 T00100008  RH  099%=      5-min Rain = 0
KCH1 181128Z 29002KT 01/01 A3002 RMK A01 T00100008  RH  099%=      5-min Rain = 0
KCH1 181129Z 29003KT 01/01 A3002 RMK A01 T00100009  RH  099%=      5-min Rain = 0
KCH1 181130Z 29002KT 01/01 A3002 RMK A01 T00120011  RH  099%=      5-min Rain = 0
KCH1 181131Z 30002KT 01/01 A3002 RMK A01 T00130012  RH  099%=      5-min Rain = 0
KCH1 181132Z 31002KT 01/01 A3001 RMK A01 T00140013  RH  100%=      5-min Rain = 0
KCH1 181133Z 31002KT 01/01 A3001 RMK A01 T00100009  RH  099%=      5-min Rain = 0
KCH1 181134Z 32001KT 01/00 A3001 RMK A01 T00060004  RH  098%=      5-min Rain = 0
KCH1 181135Z 31002KT 00/M00 A3001 RMK A01 T00031001  RH  097%=      5-min Rain = 0
KCH1 181136Z 31002KT 00/M00 A3001 RMK A01 T00011004  RH  097%=      5-min Rain = 0
KCH1 181137Z 30001KT 00/M00 A3001 RMK A01 T00011003  RH  097%=      5-min Rain = 0
KCH1 181138Z 30002KT 00/M00 A3001 RMK A01 T00021001  RH  098%=      5-min Rain = 0
KCH1 181139Z 29002KT 00/M00 A3001 RMK A01 T00021001  RH  098%=      5-min Rain = 0
KCH1 181140Z 29002KT 00/M00 A3001 RMK A01 T00021001  RH  098%=      5-min Rain = 0
KCH1 181141Z 29002KT 00/M00 A3001 RMK A01 T00021001  RH  098%=      5-min Rain = 0
KCH1 181142Z 28003KT 00/M00 A3001 RMK A01 T00021001  RH  098%=      5-min Rain = 0
KCH1 181143Z 29003KT 00/00 A3001 RMK A01 T00030001  RH  098%=      5-min Rain = 0
KCH1 181144Z 29004KT 00/00 A3001 RMK A01 T00040002  RH  099%=      5-min Rain = 0
KCH1 181145Z 29004KT 01/01 A3001 RMK A01 T00070005  RH  099%=      5-min Rain = 0
KCH1 181146Z 28005KT 01/01 A3001 RMK A01 T00090008  RH  099%=      5-min Rain = 0
KCH1 181147Z 28005KT 01/01 A3001 RMK A01 T00120011  RH  100%=      5-min Rain = 0
KCH1 181148Z 29004KT 01/01 A3001 RMK A01 T00140013  RH  100%=      5-min Rain = 0
KCH1 181149Z 29004KT 02/02 A3001 RMK A01 T00150015  RH  100%=      5-min Rain = 0
KCH1 181150Z 29004KT 02/02 A3001 RMK A01 T00150015  RH  100%=      5-min Rain = 0
KCH1 181151Z 30004KT 02/02 A3001 RMK A01 T00160016  RH  100%=      5-min Rain = 0
KCH1 181152Z 30004KT 02/02 A3001 RMK A01 T00180018  RH  100%=      5-min Rain = 0
KCH1 181153Z 30003KT 02/02 A3001 RMK A01 T00190018  RH  100%=      5-min Rain = 0
KCH1 181154Z 30003KT 02/02 A3001 RMK A01 T00170016  RH  100%=      5-min Rain = 0
KCH1 181155Z 31003KT 02/01 A3001 RMK A01 T00150013  RH  099%=      5-min Rain = 0
KCH1 181156Z 31003KT 01/01 A3001 RMK A01 T00130011  RH  099%=      5-min Rain = 0
KCH1 181157Z 31003KT 01/00 A3001 RMK A01 T00080004  RH  097%=      5-min Rain = 0
KCH1 181158Z 30003KT 00/M00 A3001 RMK A01 T00031003  RH  096%=      5-min Rain = 0
KCH1 181159Z 30003KT 00/01 A3002 RMK A01 T000000-5  RH  096%=      5-min Rain = 0
KCH1 181200Z 31003KT 00/01 A3002 RMK A01 T000000-5  RH  097%=      5-min Rain = 0
KCH1 181201Z 31002KT 00/M00 A3001 RMK A01 T00011003  RH  097%=      5-min Rain = 0
KCH1 181202Z 30003KT 00/M00 A3002 RMK A01 T00031001  RH  098%=      5-min Rain = 0
KCH1 181203Z 30003KT 00/00 A3002 RMK A01 T00040002  RH  098%=      5-min Rain = 0
KCH1 181204Z 30004KT 01/00 A3002 RMK A01 T00060004  RH  099%=      5-min Rain = 0
KCH1 181205Z 30004KT 01/01 A3002 RMK A01 T00070006  RH  099%=      5-min Rain = 0
KCH1 181206Z 31003KT 01/01 A3002 RMK A01 T00100008  RH  099%=      5-min Rain = 0
KCH1 181207Z 31003KT 01/01 A3002 RMK A01 T00110010  RH  099%=      5-min Rain = 0
KCH1 181208Z 31002KT 01/01 A3002 RMK A01 T00120011  RH  100%=      5-min Rain = 0
KCH1 181209Z 30002KT 01/01 A3002 RMK A01 T00100008  RH  099%=      5-min Rain = 0
KCH1 181210Z 30001KT 01/01 A3002 RMK A01 T00090008  RH  099%=      5-min Rain = 0
KCH1 181211Z 31002KT 01/01 A3002 RMK A01 T00090007  RH  099%=      5-min Rain = 0
KCH1 181212Z 31002KT 01/01 A3002 RMK A01 T00090007  RH  099%=      5-min Rain = 0
KCH1 181213Z 32002KT 01/01 A3002 RMK A01 T00100008  RH  099%=      5-min Rain = 0
KCH1 181214Z 33002KT 01/01 A3002 RMK A01 T00100009  RH  099%=      5-min Rain = 0
KCH1 181215Z 33002KT 01/01 A3002 RMK A01 T00090008  RH  099%=      5-min Rain = 0
KCH1 181216Z 33002KT 01/01 A3002 RMK A01 T00070005  RH  099%=      5-min Rain = 0
KCH1 181217Z 34002KT 01/00 A3002 RMK A01 T00060004  RH  099%=      5-min Rain = 0
KCH1 181218Z 34002KT 00/00 A3002 RMK A01 T00030000  RH  098%=      5-min Rain = 0
KCH1 181219Z 33003KT 00/00 A3002 RMK A01 T000000-3  RH  098%=      5-min Rain = 0
KCH1 181220Z 33003KT M00/M00 A3002 RMK A01 T10011004  RH  098%=      5-min Rain = 0
KCH1 181221Z 33003KT M00/M00 A3002 RMK A01 T10011004  RH  098%=      5-min Rain = 0
KCH1 181222Z 33003KT M00/M01 A3002 RMK A01 T10021005  RH  098%=      5-min Rain = 0
KCH1 181223Z 33003KT M00/M01 A3002 RMK A01 T10031006  RH  098%=      5-min Rain = 0
KCH1 181224Z 34003KT M00/M01 A3002 RMK A01 T10041007  RH  098%=      5-min Rain = 0
KCH1 181225Z 34002KT M00/M01 A3002 RMK A01 T10041008  RH  098%=      5-min Rain = 0
KCH1 181226Z 33002KT M00/M01 A3002 RMK A01 T10021005  RH  098%=      5-min Rain = 0
KCH1 181227Z 32002KT M00/M00 A3002 RMK A01 T10011003  RH  099%=      5-min Rain = 0
KCH1 181228Z 32002KT 00/00 A3002 RMK A01 T000000-2  RH  099%=      5-min Rain = 0
KCH1 181229Z 31003KT 00/00 A3002 RMK A01 T00-000-2  RH  099%=      5-min Rain = 0
KCH1 181230Z 31003KT M00/M00 A3002 RMK A01 T10011003  RH  099%=      5-min Rain = 0
KCH1 181231Z 30003KT 00/00 A3002 RMK A01 T000000-1  RH  099%=      5-min Rain = 0
KCH1 181232Z 30004KT 00/00 A3001 RMK A01 T00020000  RH  099%=      5-min Rain = 0
KCH1 181233Z 29004KT 00/00 A3002 RMK A01 T00040003  RH  099%=      5-min Rain = 0
KCH1 181234Z 29004KT 01/01 A3001 RMK A01 T00080007  RH  100%=      5-min Rain = 0
KCH1 181235Z 29004KT 01/01 A3001 RMK A01 T00100010  RH  100%=      5-min Rain = 0
KCH1 181236Z 29003KT 01/01 A3001 RMK A01 T00110011  RH  100%=      5-min Rain = 0
KCH1 181237Z 28003KT 01/01 A3001 RMK A01 T00110011  RH  100%=      5-min Rain = 0
KCH1 181238Z 29002KT 01/01 A3001 RMK A01 T00120012  RH  100%=      5-min Rain = 0
KCH1 181239Z 29002KT 01/01 A3001 RMK A01 T00120012  RH  100%=      5-min Rain = 0
KCH1 181240Z 29002KT 01/01 A3001 RMK A01 T00120012  RH  100%=      5-min Rain = 0
KCH1 181241Z 29002KT 01/01 A3001 RMK A01 T00120012  RH  100%=      5-min Rain = 0
KCH1 181242Z 30003KT 01/01 A3001 RMK A01 T00110011  RH  100%=      5-min Rain = 0
KCH1 181243Z 31002KT 01/01 A3001 RMK A01 T00110011  RH  100%=      5-min Rain = 0
KCH1 181244Z 31002KT 01/01 A3001 RMK A01 T00110011  RH  100%=      5-min Rain = 0
KCH1 181245Z 31002KT 01/01 A3001 RMK A01 T00080007  RH  099%=      5-min Rain = 0
KCH1 181246Z 31002KT 01/01 A3001 RMK A01 T00060005  RH  099%=      5-min Rain = 0
KCH1 181247Z 31003KT 01/01 A3002 RMK A01 T00060005  RH  099%=      5-min Rain = 0
KCH1 181248Z 32003KT 01/01 A3002 RMK A01 T00070007  RH  099%=      5-min Rain = 0
KCH1 181249Z 33002KT 01/01 A3002 RMK A01 T00070006  RH  099%=      5-min Rain = 0
KCH1 181250Z 34002KT 00/00 A3002 RMK A01 T00020000  RH  099%=      5-min Rain = 0
KCH1 181251Z 35002KT M00/M01 A3002 RMK A01 T10011005  RH  098%=      5-min Rain = 0
KCH1 181252Z 34003KT M00/M01 A3002 RMK A01 T10041008  RH  097%=      5-min Rain = 0
KCH1 181253Z 34003KT M01/M01 A3002 RMK A01 T10051009  RH  097%=      5-min Rain = 0
KCH1 181254Z 35003KT M01/M01 A3002 RMK A01 T10061010  RH  097%=      5-min Rain = 0
KCH1 181255Z 34003KT M01/M01 A3002 RMK A01 T10061010  RH  097%=      5-min Rain = 0
KCH1 181256Z 34002KT M01/M01 A3002 RMK A01 T10071010  RH  098%=      5-min Rain = 0
KCH1 181257Z 32003KT M01/M01 A3002 RMK A01 T10061008  RH  098%=      5-min Rain = 0
KCH1 181258Z 32003KT M00/M01 A3002 RMK A01 T10041007  RH  098%=      5-min Rain = 0
KCH1 181259Z 32004KT M00/M00 A3002 RMK A01 T10021003  RH  099%=      5-min Rain = 0
KCH1 181300Z 32004KT M00/M00 A3003 RMK A01 T10011002  RH  099%=      5-min Rain = 0
KCH1 181301Z 33005KT 00/00 A3003 RMK A01 T00020001  RH  099%=      5-min Rain = 0
KCH1 181302Z 32005KT 01/01 A3003 RMK A01 T00060006  RH  100%=      5-min Rain = 0
KCH1 181303Z 31004KT 01/01 A3003 RMK A01 T00090008  RH  100%=      5-min Rain = 0
KCH1 181304Z 30004KT 01/01 A3003 RMK A01 T00110011  RH  100%=      5-min Rain = 0
KCH1 181305Z 30004KT 01/01 A3003 RMK A01 T00130013  RH  100%=      5-min Rain = 0
KCH1 181306Z 30005KT 01/01 A3003 RMK A01 T00140014  RH  100%=      5-min Rain = 0
KCH1 181307Z 30005KT 02/02 A3003 RMK A01 T00150015  RH  100%=      5-min Rain = 0
KCH1 181308Z 30004KT 02/02 A3003 RMK A01 T00150015  RH  100%=      5-min Rain = 0
KCH1 181309Z 30004KT 02/02 A3003 RMK A01 T00150015  RH  100%=      5-min Rain = 0
KCH1 181310Z 31003KT 02/02 A3003 RMK A01 T00160016  RH  100%=      5-min Rain = 0
KCH1 181311Z 31003KT 02/02 A3003 RMK A01 T00160015  RH  100%=      5-min Rain = 0
KCH1 181312Z 31003KT 02/02 A3003 RMK A01 T00160015  RH  100%=      5-min Rain = 0
KCH1 181313Z 31002KT 02/02 A3003 RMK A01 T00160015  RH  099%=      5-min Rain = 0
KCH1 181314Z 33001KT 01/01 A3003 RMK A01 T00120009  RH  098%=      5-min Rain = 0
KCH1 181315Z 31002KT 01/00 A3003 RMK A01 T00080004  RH  097%=      5-min Rain = 0
KCH1 181316Z 31002KT 01/00 A3003 RMK A01 T00060002  RH  097%=      5-min Rain = 0
KCH1 181317Z 31002KT 00/M00 A3003 RMK A01 T00041001  RH  097%=      5-min Rain = 0
KCH1 181318Z 31003KT 00/M00 A3003 RMK A01 T00031001  RH  097%=      5-min Rain = 0
KCH1 181319Z 31003KT 00/M00 A3003 RMK A01 T00031001  RH  097%=      5-min Rain = 0
KCH1 181320Z 31003KT 00/00 A3003 RMK A01 T00040000  RH  097%=      5-min Rain = 0
KCH1 181321Z 31003KT 00/00 A3003 RMK A01 T00040000  RH  097%=      5-min Rain = 0
KCH1 181322Z 31002KT 00/00 A3003 RMK A01 T000300-0  RH  097%=      5-min Rain = 0
KCH1 181323Z 31002KT 00/M00 A3003 RMK A01 T00031001  RH  097%=      5-min Rain = 0
KCH1 181324Z 29002KT 00/M00 A3002 RMK A01 T00021003  RH  097%=      5-min Rain = 0
KCH1 181325Z 28002KT 00/M00 A3002 RMK A01 T00011004  RH  097%=      5-min Rain = 0
KCH1 181326Z 28002KT 00/M00 A3002 RMK A01 T00011004  RH  097%=      5-min Rain = 0
KCH1 181327Z 28002KT 00/M00 A3002 RMK A01 T00011003  RH  097%=      5-min Rain = 0
KCH1 181328Z 28002KT 00/M00 A3002 RMK A01 T00031002  RH  097%=      5-min Rain = 0
KCH1 181329Z 27001KT 00/M00 A3002 RMK A01 T00041001  RH  097%=      5-min Rain = 0
KCH1 181330Z 27001KT 00/M00 A3002 RMK A01 T00031002  RH  096%=      5-min Rain = 0
KCH1 181331Z 27002KT 00/M00 A3002 RMK A01 T00031003  RH  096%=      5-min Rain = 0
KCH1 181332Z 27002KT 00/M00 A3002 RMK A01 T00031003  RH  096%=      5-min Rain = 0
KCH1 181333Z 27001KT 00/M00 A3002 RMK A01 T00031003  RH  096%=      5-min Rain = 0
KCH1 181334Z 27001KT 00/M00 A3002 RMK A01 T00031003  RH  095%=      5-min Rain = 0
KCH1 181335Z 27001KT 00/M00 A3002 RMK A01 T00041003  RH  095%=      5-min Rain = 0
KCH1 181336Z 28002KT 00/M00 A3002 RMK A01 T00041002  RH  095%=      5-min Rain = 0
KCH1 181337Z 29002KT 01/M00 A3002 RMK A01 T00051002  RH  095%=      5-min Rain = 0
KCH1 181338Z 29003KT 01/M00 A3002 RMK A01 T00051001  RH  095%=      5-min Rain = 0
KCH1 181339Z 29003KT 01/00 A3002 RMK A01 T000600-0  RH  095%=      5-min Rain = 0
KCH1 181340Z 30003KT 01/00 A3002 RMK A01 T000600-0  RH  095%=      5-min Rain = 0
KCH1 181341Z 30003KT 01/00 A3002 RMK A01 T00070000  RH  095%=      5-min Rain = 0
KCH1 181342Z 30002KT 01/00 A3002 RMK A01 T00080001  RH  096%=      5-min Rain = 0
KCH1 181343Z 30002KT 01/00 A3002 RMK A01 T00090003  RH  096%=      5-min Rain = 0
KCH1 181344Z 30003KT 01/00 A3002 RMK A01 T00100004  RH  096%=      5-min Rain = 0
KCH1 181345Z 30003KT 01/01 A3002 RMK A01 T00120006  RH  096%=      5-min Rain = 0
KCH1 181346Z 31003KT 01/01 A3002 RMK A01 T00130008  RH  096%=      5-min Rain = 0
KCH1 181347Z 31003KT 01/01 A3002 RMK A01 T00140009  RH  096%=      5-min Rain = 0
KCH1 181348Z 31002KT 02/01 A3003 RMK A01 T00160010  RH  096%=      5-min Rain = 0
KCH1 181349Z 30003KT 02/01 A3003 RMK A01 T00170011  RH  096%=      5-min Rain = 0
KCH1 181350Z 30002KT 02/01 A3003 RMK A01 T00190013  RH  096%=      5-min Rain = 0
KCH1 181351Z 30002KT 02/02 A3003 RMK A01 T00220017  RH  096%=      5-min Rain = 0
KCH1 181352Z 30002KT 03/02 A3002 RMK A01 T00250020  RH  096%=      5-min Rain = 0
KCH1 181353Z 30002KT 03/02 A3002 RMK A01 T00280023  RH  096%=      5-min Rain = 0
KCH1 181354Z 30002KT 03/03 A3002 RMK A01 T00310026  RH  096%=      5-min Rain = 0
KCH1 181355Z 31002KT 03/03 A3002 RMK A01 T00320025  RH  095%=      5-min Rain = 0
KCH1 181356Z 31002KT 03/02 A3002 RMK A01 T00320022  RH  093%=      5-min Rain = 0
KCH1 181357Z 31002KT 03/02 A3002 RMK A01 T00310019  RH  092%=      5-min Rain = 0
KCH1 181358Z 31003KT 03/02 A3002 RMK A01 T00310017  RH  091%=      5-min Rain = 0
KCH1 181359Z 30002KT 03/02 A3002 RMK A01 T00310017  RH  090%=      5-min Rain = 0
KCH1 181400Z 30001KT 03/02 A3002 RMK A01 T00330018  RH  090%=      5-min Rain = 0
KCH1 181401Z 30001KT 03/02 A3002 RMK A01 T00340020  RH  090%=      5-min Rain = 0
KCH1 181402Z 30001KT 04/02 A3002 RMK A01 T00360022  RH  090%=      5-min Rain = 0
KCH1 181403Z 29001KT 04/02 A3002 RMK A01 T00370021  RH  089%=      5-min Rain = 0
KCH1 181404Z 28000KT 04/02 A3002 RMK A01 T00370019  RH  088%=      5-min Rain = 0
KCH1 181405Z 27001KT 04/02 A3002 RMK A01 T00380018  RH  087%=      5-min Rain = 0
KCH1 181406Z 29002KT 04/02 A3002 RMK A01 T00390021  RH  088%=      5-min Rain = 0
KCH1 181407Z 29002KT 04/02 A3002 RMK A01 T00410023  RH  088%=      5-min Rain = 0
KCH1 181408Z 29002KT 04/03 A3002 RMK A01 T00430026  RH  089%=      5-min Rain = 0
KCH1 181409Z 29001KT 05/03 A3002 RMK A01 T00450029  RH  089%=      5-min Rain = 0
KCH1 181410Z 29001KT 05/03 A3002 RMK A01 T00460031  RH  090%=      5-min Rain = 0
KCH1 181411Z 29002KT 05/03 A3002 RMK A01 T00470034  RH  091%=      5-min Rain = 0
KCH1 181412Z 27001KT 05/03 A3002 RMK A01 T00470034  RH  091%=      5-min Rain = 0
KCH1 181413Z 27001KT 05/04 A3002 RMK A01 T00480035  RH  092%=      5-min Rain = 0
KCH1 181414Z 28001KT 05/04 A3002 RMK A01 T00480037  RH  093%=      5-min Rain = 0
KCH1 181415Z 27002KT 05/04 A3002 RMK A01 T00490039  RH  093%=      5-min Rain = 0
KCH1 181416Z 27001KT 05/04 A3002 RMK A01 T00490037  RH  092%=      5-min Rain = 0
KCH1 181417Z 28002KT 05/04 A3002 RMK A01 T00480035  RH  091%=      5-min Rain = 0
KCH1 181418Z 28002KT 05/04 A3002 RMK A01 T00470035  RH  092%=      5-min Rain = 0
KCH1 181419Z 29002KT 05/04 A3002 RMK A01 T00480036  RH  092%=      5-min Rain = 0
KCH1 181420Z 29002KT 05/04 A3002 RMK A01 T00490037  RH  092%=      5-min Rain = 0
KCH1 181421Z 30002KT 05/04 A3002 RMK A01 T00490038  RH  092%=      5-min Rain = 0
KCH1 181422Z 31002KT 05/04 A3002 RMK A01 T00500039  RH  092%=      5-min Rain = 0
KCH1 181423Z 31002KT 05/04 A3002 RMK A01 T00510041  RH  093%=      5-min Rain = 0
KCH1 181424Z 30002KT 05/04 A3002 RMK A01 T00530042  RH  093%=      5-min Rain = 0
KCH1 181425Z 32001KT 05/04 A3002 RMK A01 T00530042  RH  092%=      5-min Rain = 0
KCH1 181426Z 30001KT 05/04 A3002 RMK A01 T00540042  RH  092%=      5-min Rain = 0
KCH1 181427Z 30001KT 06/04 A3002 RMK A01 T00550042  RH  092%=      5-min Rain = 0
KCH1 181428Z 32001KT 06/04 A3002 RMK A01 T00560044  RH  092%=      5-min Rain = 0
KCH1 181429Z 30001KT 06/04 A3002 RMK A01 T00570044  RH  092%=      5-min Rain = 0
KCH1 181430Z 30001KT 06/04 A3002 RMK A01 T00580044  RH  091%=      5-min Rain = 0
KCH1 181431Z 29001KT 06/05 A3002 RMK A01 T00590045  RH  091%=      5-min Rain = 0
KCH1 181432Z 30001KT 06/05 A3002 RMK A01 T00590045  RH  091%=      5-min Rain = 0
KCH1 181433Z 30001KT 06/05 A3002 RMK A01 T00590045  RH  090%=      5-min Rain = 0
KCH1 181434Z 28001KT 06/04 A3002 RMK A01 T00590044  RH  090%=      5-min Rain = 0
KCH1 181435Z 26001KT 06/04 A3002 RMK A01 T00590044  RH  090%=      5-min Rain = 0
KCH1 181436Z 28000KT 06/05 A3002 RMK A01 T00600045  RH  090%=      5-min Rain = 0
KCH1 181437Z 24000KT 06/05 A3002 RMK A01 T00610046  RH  090%=      5-min Rain = 0
KCH1 181438Z 25001KT 06/05 A3002 RMK A01 T00620047  RH  090%=      5-min Rain = 0
KCH1 181439Z 24001KT 06/05 A3002 RMK A01 T00630046  RH  089%=      5-min Rain = 0
KCH1 181440Z 24000KT 06/05 A3002 RMK A01 T00630045  RH  088%=      5-min Rain = 0
KCH1 181441Z 00000KT 06/05 A3002 RMK A01 T00640046  RH  088%=      5-min Rain = 0
KCH1 181442Z 27000KT 07/05 A3002 RMK A01 T00650047  RH  089%=      5-min Rain = 0
KCH1 181443Z 27001KT 07/05 A3002 RMK A01 T00660050  RH  089%=      5-min Rain = 0
KCH1 181444Z 28000KT 07/05 A3002 RMK A01 T00680049  RH  088%=      5-min Rain = 0
KCH1 181445Z 28000KT 07/05 A3002 RMK A01 T00680046  RH  086%=      5-min Rain = 0
KCH1 181446Z 28000KT 07/05 A3002 RMK A01 T00680046  RH  086%=      5-min Rain = 0
KCH1 181447Z 29000KT 07/05 A3002 RMK A01 T00690048  RH  086%=      5-min Rain = 0
KCH1 181448Z 28001KT 07/05 A3002 RMK A01 T00710050  RH  087%=      5-min Rain = 0
KCH1 181449Z 32001KT 07/05 A3002 RMK A01 T00720049  RH  085%=      5-min Rain = 0
KCH1 181450Z 32000KT 07/05 A3002 RMK A01 T00720047  RH  084%=      5-min Rain = 0
KCH1 181451Z 29000KT 07/05 A3002 RMK A01 T00730048  RH  084%=      5-min Rain = 0
KCH1 181452Z 35000KT 07/05 A3002 RMK A01 T00740047  RH  083%=      5-min Rain = 0
KCH1 181453Z 33000KT 08/05 A3002 RMK A01 T00750046  RH  082%=      5-min Rain = 0
KCH1 181454Z 00000KT 08/05 A3002 RMK A01 T00760048  RH  082%=      5-min Rain = 0
KCH1 181455Z 35000KT 08/05 A3002 RMK A01 T00770049  RH  082%=      5-min Rain = 0
KCH1 181456Z 00000KT 08/05 A3002 RMK A01 T00790050  RH  082%=      5-min Rain = 0
KCH1 181457Z 00000KT 08/05 A3002 RMK A01 T00800052  RH  082%=      5-min Rain = 0
KCH1 181458Z 32000KT 08/05 A3002 RMK A01 T00820051  RH  081%=      5-min Rain = 0
KCH1 181459Z 00000KT 08/05 A3002 RMK A01 T00830053  RH  081%=      5-min Rain = 0
KCH1 181500Z 34000KT 09/05 A3002 RMK A01 T00850052  RH  080%=      5-min Rain = 0
KCH1 181501Z 34000KT 09/05 A3002 RMK A01 T00860052  RH  079%=      5-min Rain = 0
KCH1 181502Z 00000KT 09/05 A3002 RMK A01 T00880053  RH  079%=      5-min Rain = 0
KCH1 181503Z 00000KT 09/05 A3002 RMK A01 T00890053  RH  078%=      5-min Rain = 0
KCH1 181504Z 28000KT 09/06 A3002 RMK A01 T00920055  RH  078%=      5-min Rain = 0
KCH1 181505Z 29000KT 10/06 A3002 RMK A01 T00950055  RH  076%=      5-min Rain = 0
KCH1 181506Z 00000KT 10/05 A3003 RMK A01 T00960048  RH  072%=      5-min Rain = 0
KCH1 181507Z 07000KT 10/05 A3003 RMK A01 T00970045  RH  070%=      5-min Rain = 0
KCH1 181508Z 07001KT 10/05 A3003 RMK A01 T00980051  RH  073%=      5-min Rain = 0
KCH1 181509Z 00000KT 10/06 A3003 RMK A01 T01000057  RH  075%=      5-min Rain = 0
KCH1 181510Z 00000KT 10/06 A3003 RMK A01 T01030059  RH  075%=      5-min Rain = 0
KCH1 181511Z 00000KT 10/06 A3003 RMK A01 T01040058  RH  073%=      5-min Rain = 0
KCH1 181512Z 00000KT 11/06 A3003 RMK A01 T01060059  RH  073%=      5-min Rain = 0
KCH1 181513Z 22000KT 11/05 A3003 RMK A01 T01070051  RH  068%=      5-min Rain = 0
KCH1 181514Z 19000KT 11/05 A3003 RMK A01 T01070049  RH  067%=      5-min Rain = 0
KCH1 181515Z 17001KT 11/05 A3003 RMK A01 T01080050  RH  067%=      5-min Rain = 0
KCH1 181516Z 18001KT 11/05 A3003 RMK A01 T01100048  RH  066%=      5-min Rain = 0
KCH1 181517Z 20000KT 11/05 A3003 RMK A01 T01100048  RH  065%=      5-min Rain = 0
KCH1 181518Z 12001KT 11/05 A3003 RMK A01 T01120054  RH  067%=      5-min Rain = 0
KCH1 181519Z 13001KT 12/06 A3003 RMK A01 T01150055  RH  067%=      5-min Rain = 0
KCH1 181520Z 14000KT 12/05 A3003 RMK A01 T01160054  RH  066%=      5-min Rain = 0
KCH1 181521Z 14002KT 12/06 A3003 RMK A01 T01180056  RH  066%=      5-min Rain = 0
KCH1 181522Z 14001KT 12/06 A3003 RMK A01 T01200055  RH  065%=      5-min Rain = 0
KCH1 181523Z 14003KT 12/05 A3003 RMK A01 T01210054  RH  064%=      5-min Rain = 0
KCH1 181524Z 16003KT 12/05 A3003 RMK A01 T01210053  RH  063%=      5-min Rain = 0
KCH1 181525Z 14003KT 12/05 A3003 RMK A01 T01190052  RH  063%=      5-min Rain = 0
KCH1 181526Z 13002KT 12/05 A3003 RMK A01 T01190053  RH  064%=      5-min Rain = 0
KCH1 181527Z 16002KT 12/05 A3003 RMK A01 T01190054  RH  064%=      5-min Rain = 0
KCH1 181528Z 15002KT 12/05 A3003 RMK A01 T01190053  RH  064%=      5-min Rain = 0
KCH1 181529Z 17002KT 12/05 A3003 RMK A01 T01200051  RH  063%=      5-min Rain = 0
KCH1 181530Z 17001KT 12/05 A3003 RMK A01 T01210052  RH  063%=      5-min Rain = 0
KCH1 181531Z 13001KT 12/05 A3003 RMK A01 T01210053  RH  063%=      5-min Rain = 0
KCH1 181532Z 10001KT 12/06 A3003 RMK A01 T01230056  RH  064%=      5-min Rain = 0
KCH1 181533Z 16001KT 13/06 A3003 RMK A01 T01260057  RH  063%=      5-min Rain = 0
KCH1 181534Z 13001KT 13/06 A3003 RMK A01 T01300056  RH  061%=      5-min Rain = 0
KCH1 181535Z 17002KT 13/06 A3003 RMK A01 T01320056  RH  060%=      5-min Rain = 0
KCH1 181536Z 17001KT 13/06 A3003 RMK A01 T01340057  RH  060%=      5-min Rain = 0
KCH1 181537Z 16001KT 14/06 A3003 RMK A01 T01360057  RH  059%=      5-min Rain = 0
KCH1 181538Z 15002KT 14/06 A3003 RMK A01 T01370057  RH  058%=      5-min Rain = 0
KCH1 181539Z 13002KT 14/06 A3003 RMK A01 T01370057  RH  058%=      5-min Rain = 0
KCH1 181540Z 13001KT 14/06 A3004 RMK A01 T01370056  RH  058%=      5-min Rain = 0
KCH1 181541Z 11001KT 14/06 A3004 RMK A01 T01380056  RH  058%=      5-min Rain = 0
KCH1 181542Z 13002KT 14/06 A3004 RMK A01 T01390056  RH  058%=      5-min Rain = 0
KCH1 181543Z 14003KT 14/06 A3004 RMK A01 T01380055  RH  057%=      5-min Rain = 0
KCH1 181544Z 14003KT 14/06 A3004 RMK A01 T01390056  RH  057%=      5-min Rain = 0
KCH1 181545Z 16002KT 14/06 A3004 RMK A01 T01380055  RH  057%=      5-min Rain = 0
KCH1 181546Z 14001KT 14/06 A3004 RMK A01 T01390056  RH  057%=      5-min Rain = 0
KCH1 181547Z 15002KT 14/06 A3004 RMK A01 T01410058  RH  057%=      5-min Rain = 0
KCH1 181548Z 16002KT 14/05 A3004 RMK A01 T01420054  RH  056%=      5-min Rain = 0
KCH1 181549Z 13002KT 14/06 A3004 RMK A01 T01420057  RH  056%=      5-min Rain = 0
KCH1 181550Z 18001KT 14/06 A3004 RMK A01 T01440056  RH  055%=      5-min Rain = 0
KCH1 181551Z 22001KT 14/05 A3004 RMK A01 T01440052  RH  054%=      5-min Rain = 0
KCH1 181552Z 14004KT 14/05 A3004 RMK A01 T01430054  RH  055%=      5-min Rain = 0
KCH1 181553Z 14003KT 14/05 A3004 RMK A01 T01430053  RH  055%=      5-min Rain = 0
KCH1 181554Z 16004KT 14/05 A3004 RMK A01 T01430053  RH  055%=      5-min Rain = 0
KCH1 181555Z 19005KT 14/05 A3004 RMK A01 T01430046  RH  052%=      5-min Rain = 0
KCH1 181556Z 18004KT 14/05 A3004 RMK A01 T01430045  RH  052%=      5-min Rain = 0
KCH1 181557Z 18005KT 14/05 A3004 RMK A01 T01430047  RH  052%=      5-min Rain = 0
KCH1 181558Z 17005KT 14/05 A3004 RMK A01 T01440046  RH  052%=      5-min Rain = 0
KCH1 181559Z 16004KT 15/05 A3004 RMK A01 T01450046  RH  051%=      5-min Rain = 0
KCH1 181600Z 17005KT 15/05 A3004 RMK A01 T01480048  RH  051%=      5-min Rain = 0
KCH1 181601Z 18005KT 15/05 A3004 RMK A01 T01500049  RH  051%=      5-min Rain = 0
KCH1 181602Z 17006KT 15/05 A3003 RMK A01 T01500047  RH  050%=      5-min Rain = 0
KCH1 181603Z 17007KT 15/05 A3003 RMK A01 T01510046  RH  050%=      5-min Rain = 0
KCH1 181604Z 18007KT 15/04 A3003 RMK A01 T01490043  RH  049%=      5-min Rain = 0
KCH1 181605Z 18006KT 15/05 A3003 RMK A01 T01480045  RH  050%=      5-min Rain = 0
KCH1 181606Z 17006KT 15/05 A3003 RMK A01 T01480046  RH  050%=      5-min Rain = 0
KCH1 181607Z 18005KT 15/04 A3003 RMK A01 T01480044  RH  050%=      5-min Rain = 0
KCH1 181608Z 18006KT 15/04 A3003 RMK A01 T01480044  RH  050%=      5-min Rain = 0
KCH1 181609Z 17006KT 15/04 A3003 RMK A01 T01490044  RH  049%=      5-min Rain = 0
KCH1 181610Z 18006KT 15/04 A3003 RMK A01 T01490043  RH  049%=      5-min Rain = 0
KCH1 181611Z 20006KT 15/05 A3003 RMK A01 T01500045  RH  050%=      5-min Rain = 0
KCH1 181612Z 21004KT 15/04 A3003 RMK A01 T01510044  RH  049%=      5-min Rain = 0
KCH1 181613Z 19005KT 15/05 A3003 RMK A01 T01520046  RH  049%=      5-min Rain = 0
KCH1 181614Z 18006KT 15/04 A3003 RMK A01 T01530044  RH  048%=      5-min Rain = 0
KCH1 181615Z 19004KT 15/04 A3003 RMK A01 T01520042  RH  048%=      5-min Rain = 0
KCH1 181616Z 18004KT 15/04 A3003 RMK A01 T01520044  RH  049%=      5-min Rain = 0
KCH1 181617Z 18004KT 15/05 A3003 RMK A01 T01540045  RH  048%=      5-min Rain = 0
KCH1 181618Z 20006KT 16/05 A3003 RMK A01 T01560047  RH  048%=      5-min Rain = 0
KCH1 181619Z 19006KT 16/05 A3003 RMK A01 T01580045  RH  047%=      5-min Rain = 0
KCH1 181620Z 19008KT 16/04 A3003 RMK A01 T01570044  RH  047%=      5-min Rain = 0
KCH1 181621Z 19007KT 16/04 A3003 RMK A01 T01560043  RH  047%=      5-min Rain = 0
KCH1 181622Z 19008KT 16/04 A3003 RMK A01 T01550043  RH  047%=      5-min Rain = 0
KCH1 181623Z 19007KT 15/04 A3003 RMK A01 T01530043  RH  048%=      5-min Rain = 0
KCH1 181624Z 20008KT 15/04 A3003 RMK A01 T01540044  RH  048%=      5-min Rain = 0
KCH1 181625Z 20005KT 15/04 A3003 RMK A01 T01530044  RH  048%=      5-min Rain = 0
KCH1 181626Z 22006KT 15/05 A3003 RMK A01 T01530046  RH  049%=      5-min Rain = 0
KCH1 181627Z 21007KT 16/05 A3003 RMK A01 T01550047  RH  049%=      5-min Rain = 0
KCH1 181628Z 19006KT 16/05 A3003 RMK A01 T01560046  RH  048%=      5-min Rain = 0
KCH1 181629Z 19008KT 16/05 A3003 RMK A01 T01560045  RH  048%=      5-min Rain = 0
KCH1 181630Z 20008KT 16/04 A3003 RMK A01 T01550044  RH  047%=      5-min Rain = 0
KCH1 181631Z 21005KT 16/05 A3003 RMK A01 T01560046  RH  048%=      5-min Rain = 0
KCH1 181632Z 21004KT 16/05 A3003 RMK A01 T01570047  RH  048%=      5-min Rain = 0
KCH1 181633Z 21005KT 16/05 A3003 RMK A01 T01580047  RH  048%=      5-min Rain = 0
KCH1 181634Z 19005KT 16/05 A3003 RMK A01 T01580048  RH  048%=      5-min Rain = 0
KCH1 181635Z 20006KT 16/05 A3003 RMK A01 T01600047  RH  047%=      5-min Rain = 0
KCH1 181636Z 19006KT 16/05 A3003 RMK A01 T01610047  RH  047%=      5-min Rain = 0
KCH1 181637Z 19005KT 16/05 A3003 RMK A01 T01610045  RH  046%=      5-min Rain = 0
KCH1 181638Z 20006KT 16/05 A3003 RMK A01 T01590047  RH  047%=      5-min Rain = 0
KCH1 181639Z 21006KT 16/05 A3003 RMK A01 T01590047  RH  047%=      5-min Rain = 0
KCH1 181640Z 19005KT 16/05 A3003 RMK A01 T01600048  RH  047%=      5-min Rain = 0
KCH1 181641Z 18004KT 16/05 A3003 RMK A01 T01620049  RH  047%=      5-min Rain = 0
KCH1 181642Z 17006KT 17/05 A3003 RMK A01 T01650050  RH  046%=      5-min Rain = 0
KCH1 181643Z 20005KT 17/05 A3003 RMK A01 T01680049  RH  045%=      5-min Rain = 0
KCH1 181644Z 21003KT 17/05 A3003 RMK A01 T01670048  RH  045%=      5-min Rain = 0
KCH1 181645Z 20004KT 16/05 A3003 RMK A01 T01640049  RH  046%=      5-min Rain = 0
KCH1 181646Z 20006KT 16/05 A3003 RMK A01 T01640049  RH  046%=      5-min Rain = 0
KCH1 181647Z 19008KT 16/05 A3003 RMK A01 T01640048  RH  046%=      5-min Rain = 0
KCH1 181648Z 20007KT 16/05 A3003 RMK A01 T01620047  RH  046%=      5-min Rain = 0
KCH1 181649Z 21006KT 16/05 A3003 RMK A01 T01610046  RH  047%=      5-min Rain = 0
KCH1 181650Z 21008KT 16/05 A3003 RMK A01 T01610047  RH  047%=      5-min Rain = 0
KCH1 181651Z 21008KT 16/05 A3003 RMK A01 T01610046  RH  046%=      5-min Rain = 0
KCH1 181652Z 20007KT 16/05 A3003 RMK A01 T01610045  RH  046%=      5-min Rain = 0
KCH1 181653Z 20006KT 16/05 A3003 RMK A01 T01610046  RH  046%=      5-min Rain = 0
KCH1 181654Z 20007KT 16/05 A3002 RMK A01 T01620045  RH  046%=      5-min Rain = 0
KCH1 181655Z 19006KT 16/05 A3002 RMK A01 T01630046  RH  046%=      5-min Rain = 0
KCH1 181656Z 18006KT 17/05 A3002 RMK A01 T01650047  RH  045%=      5-min Rain = 0
KCH1 181657Z 18008KT 17/05 A3002 RMK A01 T01670045  RH  044%=      5-min Rain = 0
KCH1 181658Z 19008KT 17/04 A3002 RMK A01 T01670044  RH  044%=      5-min Rain = 0
KCH1 181659Z 20006KT 17/05 A3002 RMK A01 T01670045  RH  044%=      5-min Rain = 0
KCH1 181700Z 21006KT 17/05 A3002 RMK A01 T01680045  RH  044%=      5-min Rain = 0
KCH1 181701Z 22004KT 17/05 A3002 RMK A01 T01680047  RH  045%=      5-min Rain = 0
KCH1 181702Z 21006KT 17/05 A3002 RMK A01 T01710047  RH  044%=      5-min Rain = 0
KCH1 181703Z 19006KT 17/05 A3002 RMK A01 T01710047  RH  044%=      5-min Rain = 0
KCH1 181704Z 19008KT 17/05 A3002 RMK A01 T01720046  RH  043%=      5-min Rain = 0
KCH1 181705Z 20007KT 17/05 A3001 RMK A01 T01710046  RH  043%=      5-min Rain = 0
KCH1 181706Z 20006KT 17/05 A3001 RMK A01 T01710045  RH  043%=      5-min Rain = 0
KCH1 181707Z 21006KT 17/05 A3001 RMK A01 T01720046  RH  043%=      5-min Rain = 0
KCH1 181708Z 19005KT 17/05 A3001 RMK A01 T01740047  RH  043%=      5-min Rain = 0
KCH1 181709Z 21008KT 18/05 A3001 RMK A01 T01770046  RH  042%=      5-min Rain = 0
KCH1 181710Z 21008KT 18/04 A3001 RMK A01 T01770044  RH  041%=      5-min Rain = 0
KCH1 181711Z 22007KT 17/04 A3001 RMK A01 T01730042  RH  042%=      5-min Rain = 0
KCH1 181712Z 21008KT 17/04 A3001 RMK A01 T01720043  RH  043%=      5-min Rain = 0
KCH1 181713Z 21008KT 17/04 A3001 RMK A01 T01720042  RH  042%=      5-min Rain = 0
KCH1 181714Z 21009KT 17/04 A3001 RMK A01 T01720042  RH  042%=      5-min Rain = 0
KCH1 181715Z 21008KT 17/04 A3001 RMK A01 T01710042  RH  042%=      5-min Rain = 0
KCH1 181716Z 21008KT 17/04 A3001 RMK A01 T01700043  RH  043%=      5-min Rain = 0
KCH1 181717Z 23007KT 17/04 A3001 RMK A01 T01710044  RH  043%=      5-min Rain = 0
KCH1 181718Z 23008KT 17/04 A3001 RMK A01 T01730044  RH  042%=      5-min Rain = 0
KCH1 181719Z 21008G13KT 17/05 A3001 RMK A01 T01730045  RH  042%=      5-min Rain = 0
KCH1 181720Z 20005KT 17/05 A3001 RMK A01 T01730045  RH  043%=      5-min Rain = 0
KCH1 181721Z 21007KT 17/05 A30 RMK A01 T01730046  RH  043%=      5-min Rain = 0
KCH1 181722Z 21006KT 17/05 A30 RMK A01 T01740046  RH  043%=      5-min Rain = 0
KCH1 181723Z 22005KT 17/05 A30 RMK A01 T01740047  RH  043%=      5-min Rain = 0
KCH1 181724Z 21006KT 18/05 A30 RMK A01 T01770047  RH  042%=      5-min Rain = 0
KCH1 181725Z 21006KT 18/05 A30 RMK A01 T01780047  RH  042%=      5-min Rain = 0
KCH1 181726Z 21006KT 18/05 A30 RMK A01 T01790046  RH  041%=      5-min Rain = 0
KCH1 181727Z 20008KT 18/05 A2999 RMK A01 T01800047  RH  041%=      5-min Rain = 0
KCH1 181728Z 20010KT 18/05 A2999 RMK A01 T01790045  RH  041%=      5-min Rain = 0
KCH1 181729Z 21007KT 18/05 A30 RMK A01 T01790045  RH  041%=      5-min Rain = 0
KCH1 181730Z 19006KT 18/04 A30 RMK A01 T01790044  RH  041%=      5-min Rain = 0
KCH1 181731Z 20006KT 18/04 A30 RMK A01 T01790043  RH  041%=      5-min Rain = 0
KCH1 181732Z 21007KT 18/05 A30 RMK A01 T01790045  RH  041%=      5-min Rain = 0
KCH1 181733Z 18005KT 18/05 A30 RMK A01 T01790046  RH  041%=      5-min Rain = 0
KCH1 181734Z 17006KT 18/05 A30 RMK A01 T01820047  RH  041%=      5-min Rain = 0
KCH1 181735Z 17008KT 18/05 A2999 RMK A01 T01840046  RH  040%=      5-min Rain = 0
KCH1 181736Z 17008KT 18/05 A30 RMK A01 T01840045  RH  040%=      5-min Rain = 0
KCH1 181737Z 17005KT 18/04 A30 RMK A01 T01820043  RH  040%=      5-min Rain = 0
KCH1 181738Z 17007KT 18/05 A30 RMK A01 T01810045  RH  041%=      5-min Rain = 0
KCH1 181739Z 18007KT 18/05 A2999 RMK A01 T01840046  RH  040%=      5-min Rain = 0
KCH1 181740Z 18007KT 19/05 A30 RMK A01 T01860047  RH  040%=      5-min Rain = 0
KCH1 181741Z 17007KT 19/05 A2999 RMK A01 T01880046  RH  039%=      5-min Rain = 0
KCH1 181742Z 17005KT 18/04 A2999 RMK A01 T01840043  RH  039%=      5-min Rain = 0
KCH1 181743Z 19006KT 18/04 A2999 RMK A01 T01810043  RH  040%=      5-min Rain = 0
KCH1 181744Z 21004KT 18/04 A2999 RMK A01 T01810043  RH  040%=      5-min Rain = 0
KCH1 181745Z 19006KT 18/04 A2999 RMK A01 T01810044  RH  040%=      5-min Rain = 0
KCH1 181746Z 18009KT 18/04 A2999 RMK A01 T01820044  RH  040%=      5-min Rain = 0
KCH1 181747Z 19008KT 18/04 A2999 RMK A01 T01820043  RH  040%=      5-min Rain = 0
KCH1 181748Z 19007KT 18/04 A2999 RMK A01 T01840043  RH  039%=      5-min Rain = 0
KCH1 181749Z 19005KT 19/04 A2999 RMK A01 T01850042  RH  039%=      5-min Rain = 0
KCH1 181750Z 16002KT 18/04 A2999 RMK A01 T01840042  RH  039%=      5-min Rain = 0
KCH1 181751Z 14003KT 19/04 A2999 RMK A01 T01850044  RH  039%=      5-min Rain = 0
KCH1 181752Z 18004KT 19/05 A2999 RMK A01 T01880048  RH  040%=      5-min Rain = 0
KCH1 181753Z 17007KT 19/05 A2999 RMK A01 T01910049  RH  039%=      5-min Rain = 0
KCH1 181754Z 18006KT 19/05 A2999 RMK A01 T01920046  RH  038%=      5-min Rain = 0
KCH1 181755Z 19006KT 19/05 A2999 RMK A01 T01890045  RH  039%=      5-min Rain = 0
KCH1 181756Z 19005KT 19/05 A2999 RMK A01 T01880047  RH  039%=      5-min Rain = 0
KCH1 181757Z 17005KT 19/05 A2999 RMK A01 T01890048  RH  039%=      5-min Rain = 0
KCH1 181758Z 14006KT 19/05 A2999 RMK A01 T01900047  RH  039%=      5-min Rain = 0
KCH1 181759Z 14005KT 19/05 A2998 RMK A01 T01920046  RH  038%=      5-min Rain = 0
KCH1 181800Z 16006KT 19/05 A2998 RMK A01 T01930047  RH  038%=      5-min Rain = 0
KCH1 181801Z 16008KT 19/05 A2998 RMK A01 T01940046  RH  038%=      5-min Rain = 0
KCH1 181802Z 16006KT 19/05 A2998 RMK A01 T01930045  RH  038%=      5-min Rain = 0
KCH1 181803Z 17004KT 19/05 A2998 RMK A01 T01930046  RH  038%=      5-min Rain = 0
KCH1 181804Z 19006KT 19/05 A2998 RMK A01 T01940047  RH  038%=      5-min Rain = 0
KCH1 181805Z 20006KT 19/04 A2998 RMK A01 T01940043  RH  037%=      5-min Rain = 0
KCH1 181806Z 19005KT 19/04 A2998 RMK A01 T01900041  RH  037%=      5-min Rain = 0
KCH1 181807Z 21006KT 19/04 A2998 RMK A01 T01890043  RH  038%=      5-min Rain = 0
KCH1 181808Z 21006KT 19/04 A2998 RMK A01 T01910043  RH  038%=      5-min Rain = 0
KCH1 181809Z 19005KT 19/04 A2998 RMK A01 T01890043  RH  038%=      5-min Rain = 0
KCH1 181810Z 16006KT 19/05 A2997 RMK A01 T01890046  RH  039%=      5-min Rain = 0
KCH1 181811Z 15006KT 19/05 A2997 RMK A01 T01920047  RH  039%=      5-min Rain = 0
KCH1 181812Z 12006KT 19/05 A2997 RMK A01 T01930047  RH  038%=      5-min Rain = 0
KCH1 181813Z 13004KT 19/05 A2997 RMK A01 T01930047  RH  038%=      5-min Rain = 0
KCH1 181814Z 17004KT 19/05 A2997 RMK A01 T01930048  RH  038%=      5-min Rain = 0
KCH1 181815Z 16005KT 20/05 A2997 RMK A01 T01950049  RH  038%=      5-min Rain = 0
KCH1 181816Z 19007KT 20/05 A2997 RMK A01 T01980049  RH  037%=      5-min Rain = 0
KCH1 181817Z 21007KT 20/05 A2997 RMK A01 T01990045  RH  036%=      5-min Rain = 0
KCH1 181818Z 21005KT 20/04 A2997 RMK A01 T01970044  RH  036%=      5-min Rain = 0
KCH1 181819Z 23005KT 20/04 A2997 RMK A01 T01950043  RH  037%=      5-min Rain = 0
KCH1 181820Z 23004KT 19/04 A2997 RMK A01 T01940044  RH  037%=      5-min Rain = 0
KCH1 181821Z 23003KT 19/04 A2997 RMK A01 T01940043  RH  037%=      5-min Rain = 0
KCH1 181822Z 21003KT 19/05 A2997 RMK A01 T01930045  RH  038%=      5-min Rain = 0
KCH1 181823Z 15006KT 20/05 A2997 RMK A01 T01950048  RH  038%=      5-min Rain = 0
KCH1 181824Z 15005KT 20/05 A2997 RMK A01 T01980048  RH  037%=      5-min Rain = 0
KCH1 181825Z 15004KT 20/05 A2997 RMK A01 T01980047  RH  037%=      5-min Rain = 0
KCH1 181826Z 17003KT 20/05 A2997 RMK A01 T01970045  RH  037%=      5-min Rain = 0
KCH1 181827Z 17005KT 20/05 A2997 RMK A01 T01960046  RH  037%=      5-min Rain = 0
KCH1 181828Z 20004KT 20/05 A2997 RMK A01 T01970046  RH  037%=      5-min Rain = 0
KCH1 181829Z 23004KT 20/04 A2997 RMK A01 T01980044  RH  036%=      5-min Rain = 0
KCH1 181830Z 21002KT 20/04 A2997 RMK A01 T01980042  RH  036%=      5-min Rain = 0
KCH1 181831Z 27003KT 20/04 A2996 RMK A01 T01980041  RH  036%=      5-min Rain = 0
KCH1 181832Z 22001KT 20/04 A2996 RMK A01 T01970042  RH  036%=      5-min Rain = 0
KCH1 181833Z 18004KT 20/05 A2996 RMK A01 T01980045  RH  036%=      5-min Rain = 0
KCH1 181834Z 18007KT 20/05 A2996 RMK A01 T02010046  RH  036%=      5-min Rain = 0
KCH1 181835Z 19008KT 20/05 A2996 RMK A01 T02020045  RH  036%=      5-min Rain = 0
KCH1 181836Z 19005KT 20/05 A2996 RMK A01 T02000045  RH  036%=      5-min Rain = 0
KCH1 181837Z 19004KT 20/05 A2996 RMK A01 T01990045  RH  036%=      5-min Rain = 0
KCH1 181838Z 20003KT 20/04 A2996 RMK A01 T01990044  RH  036%=      5-min Rain = 0
KCH1 181839Z 20001KT 20/04 A2996 RMK A01 T01980044  RH  036%=      5-min Rain = 0
KCH1 181840Z 14003KT 20/04 A2996 RMK A01 T01970043  RH  036%=      5-min Rain = 0
KCH1 181841Z 17007KT 20/05 A2996 RMK A01 T01990045  RH  036%=      5-min Rain = 0
KCH1 181842Z 20007KT 20/04 A2996 RMK A01 T02010044  RH  036%=      5-min Rain = 0
KCH1 181843Z 18007KT 20/04 A2996 RMK A01 T02000043  RH  035%=      5-min Rain = 0
KCH1 181844Z 21005KT 20/04 A2996 RMK A01 T01990042  RH  035%=      5-min Rain = 0
KCH1 181845Z 20004KT 20/04 A2995 RMK A01 T01990042  RH  036%=      5-min Rain = 0
KCH1 181846Z 18004KT 20/05 A2995 RMK A01 T02010045  RH  036%=      5-min Rain = 0
KCH1 181847Z 16004KT 20/05 A2995 RMK A01 T02030045  RH  035%=      5-min Rain = 0
KCH1 181848Z 22005KT 21/05 A2995 RMK A01 T02050046  RH  035%=      5-min Rain = 0
KCH1 181849Z 23006KT 21/05 A2995 RMK A01 T02050045  RH  035%=      5-min Rain = 0
KCH1 181850Z 25002KT 20/04 A2995 RMK A01 T02040043  RH  035%=      5-min Rain = 0
KCH1 181851Z 20006KT 20/04 A2995 RMK A01 T02030044  RH  035%=      5-min Rain = 0
KCH1 181852Z 17005KT 20/04 A2995 RMK A01 T02030044  RH  035%=      5-min Rain = 0
KCH1 181853Z 15005KT 20/04 A2995 RMK A01 T02040043  RH  035%=      5-min Rain = 0
KCH1 181854Z 15005KT 20/04 A2995 RMK A01 T02040043  RH  035%=      5-min Rain = 0
KCH1 181855Z 15002KT 20/04 A2995 RMK A01 T02040042  RH  035%=      5-min Rain = 0
KCH1 181856Z 16004KT 20/04 A2995 RMK A01 T02040042  RH  034%=      5-min Rain = 0
KCH1 181857Z 18003KT 21/04 A2995 RMK A01 T02050044  RH  035%=      5-min Rain = 0
KCH1 181858Z 19003KT 21/05 A2994 RMK A01 T02060045  RH  035%=      5-min Rain = 0
KCH1 181859Z 19004KT 21/05 A2994 RMK A01 T02070046  RH  035%=      5-min Rain = 0
KCH1 181900Z 19003KT 21/05 A2994 RMK A01 T02100048  RH  035%=      5-min Rain = 0
KCH1 181901Z 19002KT 21/05 A2994 RMK A01 T02120049  RH  034%=      5-min Rain = 0
KCH1 181902Z 17005KT 22/05 A2994 RMK A01 T02150045  RH  033%=      5-min Rain = 0
KCH1 181903Z 15005KT 21/04 A2994 RMK A01 T02140043  RH  032%=      5-min Rain = 0
KCH1 181904Z 15006KT 21/04 A2994 RMK A01 T02130044  RH  033%=      5-min Rain = 0
KCH1 181905Z 18004KT 21/05 A2994 RMK A01 T02140045  RH  033%=      5-min Rain = 0
KCH1 181906Z 16006KT 22/04 A2994 RMK A01 T02150044  RH  033%=      5-min Rain = 0
KCH1 181907Z 17006KT 22/05 A2994 RMK A01 T02170046  RH  033%=      5-min Rain = 0
KCH1 181908Z 16005KT 22/04 A2994 RMK A01 T02170043  RH  032%=      5-min Rain = 0
KCH1 181909Z 15005KT 21/04 A2994 RMK A01 T02140043  RH  033%=      5-min Rain = 0
KCH1 181910Z 15006KT 21/04 A2994 RMK A01 T02140044  RH  033%=      5-min Rain = 0
KCH1 181911Z 14006KT 21/04 A2994 RMK A01 T02130043  RH  033%=      5-min Rain = 0
KCH1 181912Z 15004KT 21/04 A2993 RMK A01 T02120043  RH  033%=      5-min Rain = 0
KCH1 181913Z 18006KT 21/04 A2993 RMK A01 T02130044  RH  033%=      5-min Rain = 0
KCH1 181914Z 20005KT 21/04 A2993 RMK A01 T02140044  RH  033%=      5-min Rain = 0
KCH1 181915Z 21004KT 21/04 A2993 RMK A01 T02120043  RH  033%=      5-min Rain = 0
KCH1 181916Z 19007KT 21/05 A2993 RMK A01 T02110045  RH  034%=      5-min Rain = 0
KCH1 181917Z 17007KT 21/04 A2993 RMK A01 T02130044  RH  033%=      5-min Rain = 0
KCH1 181918Z 16005KT 21/04 A2993 RMK A01 T02140042  RH  032%=      5-min Rain = 0
KCH1 181919Z 18004KT 22/04 A2993 RMK A01 T02150042  RH  032%=      5-min Rain = 0
KCH1 181920Z 20003KT 22/04 A2993 RMK A01 T02150040  RH  032%=      5-min Rain = 0
KCH1 181921Z 19005KT 21/04 A2993 RMK A01 T02140042  RH  032%=      5-min Rain = 0
KCH1 181922Z 19006KT 21/04 A2993 RMK A01 T02140041  RH  032%=      5-min Rain = 0
KCH1 181923Z 18004KT 22/04 A2993 RMK A01 T02150040  RH  032%=      5-min Rain = 0
KCH1 181924Z 20003KT 22/04 A2993 RMK A01 T02150041  RH  032%=      5-min Rain = 0
KCH1 181925Z 17007KT 22/04 A2992 RMK A01 T02150043  RH  032%=      5-min Rain = 0
KCH1 181926Z 17006KT 22/04 A2992 RMK A01 T02160041  RH  032%=      5-min Rain = 0
KCH1 181927Z 17005KT 22/04 A2992 RMK A01 T02160043  RH  032%=      5-min Rain = 0
KCH1 181928Z 18006KT 22/04 A2992 RMK A01 T02160043  RH  032%=      5-min Rain = 0
KCH1 181929Z 18006KT 22/04 A2993 RMK A01 T02170042  RH  032%=      5-min Rain = 0
KCH1 181930Z 19003KT 22/04 A2993 RMK A01 T02160040  RH  031%=      5-min Rain = 0
KCH1 181931Z 16005KT 21/04 A2992 RMK A01 T02140040  RH  032%=      5-min Rain = 0
KCH1 181932Z 17006KT 22/04 A2992 RMK A01 T02150040  RH  032%=      5-min Rain = 0
KCH1 181933Z 20002KT 22/04 A2992 RMK A01 T02160040  RH  031%=      5-min Rain = 0
KCH1 181934Z 22004KT 22/04 A2992 RMK A01 T02170042  RH  032%=      5-min Rain = 0
KCH1 181935Z 23006KT 22/04 A2992 RMK A01 T02180040  RH  031%=      5-min Rain = 0
KCH1 181936Z 23004KT 22/04 A2992 RMK A01 T02190038  RH  031%=      5-min Rain = 0
KCH1 181937Z 24005KT 22/04 A2992 RMK A01 T02180036  RH  030%=      5-min Rain = 0
KCH1 181938Z 20007KT 22/04 A2992 RMK A01 T02170037  RH  031%=      5-min Rain = 0
KCH1 181939Z 20005KT 22/04 A2992 RMK A01 T02170035  RH  030%=      5-min Rain = 0
KCH1 181940Z 18005KT 22/04 A2992 RMK A01 T02170035  RH  030%=      5-min Rain = 0
KCH1 181941Z 16003KT 22/03 A2992 RMK A01 T02170032  RH  030%=      5-min Rain = 0
KCH1 181942Z 18003KT 22/03 A2991 RMK A01 T02170032  RH  030%=      5-min Rain = 0
KCH1 181943Z 19005KT 22/03 A2991 RMK A01 T02170034  RH  030%=      5-min Rain = 0
KCH1 181944Z 18003KT 22/03 A2991 RMK A01 T02180032  RH  029%=      5-min Rain = 0
KCH1 181945Z 15004KT 22/03 A2991 RMK A01 T02200034  RH  029%=      5-min Rain = 0
KCH1 181946Z 18005KT 22/04 A2991 RMK A01 T02240035  RH  029%=      5-min Rain = 0
KCH1 181947Z 17004KT 23/03 A2991 RMK A01 T02250033  RH  028%=      5-min Rain = 0
KCH1 181948Z 21004KT 23/03 A2991 RMK A01 T02250032  RH  028%=      5-min Rain = 0
KCH1 181949Z 22005KT 22/03 A2991 RMK A01 T02230032  RH  028%=      5-min Rain = 0
KCH1 181950Z 22004KT 22/03 A2991 RMK A01 T02220031  RH  029%=      5-min Rain = 0
KCH1 181951Z 21006KT 22/04 A2991 RMK A01 T02230035  RH  029%=      5-min Rain = 0
KCH1 181952Z 21007KT 22/03 A2991 RMK A01 T02240031  RH  028%=      5-min Rain = 0
KCH1 181953Z 24004KT 22/03 A2991 RMK A01 T02230030  RH  028%=      5-min Rain = 0
KCH1 181954Z 23005KT 22/03 A2991 RMK A01 T02220033  RH  029%=      5-min Rain = 0
KCH1 181955Z 23006KT 22/03 A2991 RMK A01 T02230031  RH  028%=      5-min Rain = 0
KCH1 181956Z 23004KT 22/03 A2991 RMK A01 T02220030  RH  028%=      5-min Rain = 0
KCH1 181957Z 22005KT 22/03 A2991 RMK A01 T02220032  RH  029%=      5-min Rain = 0
KCH1 181958Z 22006KT 22/03 A2991 RMK A01 T02210029  RH  028%=      5-min Rain = 0
KCH1 181959Z 15003KT 22/03 A2991 RMK A01 T02180029  RH  029%=      5-min Rain = 0
KCH1 182000Z 13003KT 22/03 A2991 RMK A01 T02180029  RH  029%=      5-min Rain = 0
KCH1 182001Z 19004KT 22/03 A2991 RMK A01 T02210032  RH  029%=      5-min Rain = 0
KCH1 182002Z 16005KT 22/03 A2991 RMK A01 T02240032  RH  028%=      5-min Rain = 0
KCH1 182003Z 17004KT 23/03 A2991 RMK A01 T02250029  RH  028%=      5-min Rain = 0
KCH1 182004Z 20004KT 23/03 A2991 RMK A01 T02250030  RH  028%=      5-min Rain = 0
KCH1 182005Z 23004KT 22/03 A2991 RMK A01 T02240029  RH  028%=      5-min Rain = 0
KCH1 182006Z 18005KT 22/03 A299 RMK A01 T02220029  RH  028%=      5-min Rain = 0
KCH1 182007Z 17004KT 22/03 A299 RMK A01 T02220028  RH  028%=      5-min Rain = 0
KCH1 182008Z 15001KT 22/03 A299 RMK A01 T02220028  RH  028%=      5-min Rain = 0
KCH1 182009Z 24007KT 22/03 A299 RMK A01 T02240030  RH  028%=      5-min Rain = 0
KCH1 182010Z 23006KT 22/03 A299 RMK A01 T02240028  RH  027%=      5-min Rain = 0
KCH1 182011Z 22004KT 22/03 A299 RMK A01 T02230029  RH  028%=      5-min Rain = 0
KCH1 182012Z 25006KT 23/03 A299 RMK A01 T02250030  RH  028%=      5-min Rain = 0
KCH1 182013Z 24006KT 22/03 A299 RMK A01 T02240028  RH  028%=      5-min Rain = 0
KCH1 182014Z 23005KT 22/03 A299 RMK A01 T02230029  RH  028%=      5-min Rain = 0
KCH1 182015Z 24005KT 22/03 A299 RMK A01 T02220029  RH  028%=      5-min Rain = 0
KCH1 182016Z 22010KT 22/03 A2989 RMK A01 T02220029  RH  028%=      5-min Rain = 0
KCH1 182017Z 19009KT 22/03 A2989 RMK A01 T02230031  RH  028%=      5-min Rain = 0
KCH1 182018Z 20009KT 22/03 A2989 RMK A01 T02230031  RH  028%=      5-min Rain = 0
KCH1 182019Z 20006KT 22/03 A2989 RMK A01 T02240029  RH  028%=      5-min Rain = 0
KCH1 182020Z 18003KT 22/03 A2989 RMK A01 T02230028  RH  028%=      5-min Rain = 0
KCH1 182021Z 18004KT 22/03 A2989 RMK A01 T02230030  RH  028%=      5-min Rain = 0
KCH1 182022Z 18007KT 23/03 A2989 RMK A01 T02250028  RH  027%=      5-min Rain = 0
KCH1 182023Z 18007KT 23/03 A2989 RMK A01 T02250028  RH  027%=      5-min Rain = 0
KCH1 182024Z 19006KT 23/03 A2989 RMK A01 T02270029  RH  027%=      5-min Rain = 0
KCH1 182025Z 19009KT 23/03 A2989 RMK A01 T02290029  RH  027%=      5-min Rain = 0
KCH1 182026Z 19009KT 23/03 A2989 RMK A01 T02280027  RH  027%=      5-min Rain = 0
KCH1 182027Z 21007KT 23/03 A2989 RMK A01 T02270029  RH  027%=      5-min Rain = 0
KCH1 182028Z 22006KT 23/03 A2989 RMK A01 T02270031  RH  028%=      5-min Rain = 0
KCH1 182029Z 22008KT 23/03 A2989 RMK A01 T02280031  RH  027%=      5-min Rain = 0
KCH1 182030Z 22006KT 23/03 A2989 RMK A01 T02270030  RH  027%=      5-min Rain = 0
KCH1 182031Z 17006KT 23/03 A2989 RMK A01 T02260030  RH  028%=      5-min Rain = 0
KCH1 182032Z 17006KT 23/03 A2989 RMK A01 T02280031  RH  028%=      5-min Rain = 0
KCH1 182033Z 17006KT 23/03 A2989 RMK A01 T02290030  RH  027%=      5-min Rain = 0
KCH1 182034Z 19009KT 23/03 A2989 RMK A01 T02290029  RH  027%=      5-min Rain = 0
KCH1 182035Z 18008KT 23/03 A2989 RMK A01 T02290028  RH  027%=      5-min Rain = 0
KCH1 182036Z 20006KT 23/03 A2989 RMK A01 T02280028  RH  027%=      5-min Rain = 0
KCH1 182037Z 20004KT 23/03 A2989 RMK A01 T02290030  RH  027%=      5-min Rain = 0
KCH1 182038Z 22006KT 23/03 A2989 RMK A01 T02310027  RH  026%=      5-min Rain = 0
KCH1 182039Z 22004KT 23/03 A2989 RMK A01 T02300028  RH  027%=      5-min Rain = 0
KCH1 182040Z 24004KT 23/03 A2989 RMK A01 T02310028  RH  026%=      5-min Rain = 0
KCH1 182041Z 21005KT 23/03 A2989 RMK A01 T02310026  RH  026%=      5-min Rain = 0
KCH1 182042Z 27005KT 23/03 A2989 RMK A01 T02310029  RH  027%=      5-min Rain = 0
KCH1 182043Z 28005KT 23/03 A2989 RMK A01 T02320029  RH  026%=      5-min Rain = 0
KCH1 182044Z 26004KT 23/03 A2989 RMK A01 T02320027  RH  026%=      5-min Rain = 0
KCH1 182045Z 22005KT 23/03 A2989 RMK A01 T02320031  RH  027%=      5-min Rain = 0
KCH1 182046Z 23006KT 23/03 A2988 RMK A01 T02330029  RH  026%=      5-min Rain = 0
KCH1 182047Z 25008KT 23/03 A2988 RMK A01 T02330030  RH  027%=      5-min Rain = 0
KCH1 182048Z 26006KT 23/03 A2988 RMK A01 T02320027  RH  026%=      5-min Rain = 0
KCH1 182049Z 26004KT 23/03 A2989 RMK A01 T02300025  RH  026%=      5-min Rain = 0
KCH1 182050Z 24003KT 23/03 A2989 RMK A01 T02280026  RH  027%=      5-min Rain = 0
KCH1 182051Z 21006KT 23/03 A2989 RMK A01 T02290028  RH  027%=      5-min Rain = 0
KCH1 182052Z 22007KT 23/03 A2989 RMK A01 T02300029  RH  027%=      5-min Rain = 0
KCH1 182053Z 24006KT 23/03 A2989 RMK A01 T02310029  RH  027%=      5-min Rain = 0
KCH1 182054Z 23004KT 23/03 A2989 RMK A01 T02310030  RH  027%=      5-min Rain = 0
KCH1 182055Z 21007KT 23/03 A2989 RMK A01 T02320030  RH  027%=      5-min Rain = 0
KCH1 182056Z 19009KT 23/03 A2988 RMK A01 T02320029  RH  026%=      5-min Rain = 0
KCH1 182057Z 17008KT 23/03 A2988 RMK A01 T02310028  RH  026%=      5-min Rain = 0
KCH1 182058Z 18007KT 23/03 A2988 RMK A01 T02300027  RH  026%=      5-min Rain = 0
KCH1 182059Z 19005KT 23/03 A2988 RMK A01 T02300027  RH  026%=      5-min Rain = 0
KCH1 182100Z 21005KT 23/03 A2988 RMK A01 T02310027  RH  026%=      5-min Rain = 0
KCH1 182101Z 21004KT 23/03 A2988 RMK A01 T02310027  RH  026%=      5-min Rain = 0
KCH1 182102Z 23005KT 23/03 A2988 RMK A01 T02290028  RH  027%=      5-min Rain = 0
KCH1 182103Z 22003KT 23/03 A2988 RMK A01 T02300029  RH  027%=      5-min Rain = 0
KCH1 182104Z 21003KT 23/03 A2988 RMK A01 T02330031  RH  027%=      5-min Rain = 0
KCH1 182105Z 24007KT 24/03 A2988 RMK A01 T02350033  RH  027%=      5-min Rain = 0
KCH1 182106Z 22005KT 24/03 A2988 RMK A01 T02370033  RH  026%=      5-min Rain = 0
KCH1 182107Z 22005KT 24/03 A2988 RMK A01 T02370029  RH  026%=      5-min Rain = 0
KCH1 182108Z 21004KT 24/03 A2988 RMK A01 T02350029  RH  026%=      5-min Rain = 0
KCH1 182109Z 22003KT 24/03 A2988 RMK A01 T02350029  RH  026%=      5-min Rain = 0
KCH1 182110Z 22002KT 24/03 A2988 RMK A01 T02360031  RH  026%=      5-min Rain = 0
KCH1 182111Z 21003KT 24/03 A2988 RMK A01 T02380031  RH  026%=      5-min Rain = 0
KCH1 182112Z 22004KT 24/03 A2988 RMK A01 T02390032  RH  026%=      5-min Rain = 0
KCH1 182113Z 20009KT 24/03 A2988 RMK A01 T02390031  RH  026%=      5-min Rain = 0
KCH1 182114Z 19005KT 24/03 A2988 RMK A01 T02360028  RH  026%=      5-min Rain = 0
KCH1 182115Z 19005KT 23/03 A2988 RMK A01 T02340028  RH  026%=      5-min Rain = 0
KCH1 182116Z 20005KT 23/03 A2988 RMK A01 T02320028  RH  026%=      5-min Rain = 0
KCH1 182117Z 19006KT 23/03 A2988 RMK A01 T02320030  RH  027%=      5-min Rain = 0
KCH1 182118Z 21004KT 23/03 A2988 RMK A01 T02340030  RH  026%=      5-min Rain = 0
KCH1 182119Z 21004KT 24/03 A2988 RMK A01 T02350032  RH  027%=      5-min Rain = 0
KCH1 182120Z 19005KT 24/03 A2988 RMK A01 T02370031  RH  026%=      5-min Rain = 0
KCH1 182121Z 19006KT 24/03 A2988 RMK A01 T02370029  RH  026%=      5-min Rain = 0
KCH1 182122Z 21008KT 24/03 A2988 RMK A01 T02360030  RH  026%=      5-min Rain = 0
KCH1 182123Z 19006KT 24/03 A2988 RMK A01 T02350029  RH  026%=      5-min Rain = 0
KCH1 182124Z 20006KT 23/03 A2988 RMK A01 T02330029  RH  026%=      5-min Rain = 0
KCH1 182125Z 20006KT 23/03 A2988 RMK A01 T02330029  RH  026%=      5-min Rain = 0
KCH1 182126Z 21005KT 23/03 A2988 RMK A01 T02330028  RH  026%=      5-min Rain = 0
KCH1 182127Z 20007KT 23/03 A2988 RMK A01 T02320031  RH  027%=      5-min Rain = 0
KCH1 182128Z 20006KT 23/03 A2988 RMK A01 T02330030  RH  027%=      5-min Rain = 0
KCH1 182129Z 21004KT 23/03 A2988 RMK A01 T02330031  RH  027%=      5-min Rain = 0
KCH1 182130Z 20005KT 23/03 A2988 RMK A01 T02330032  RH  027%=      5-min Rain = 0
KCH1 182131Z 19005KT 23/03 A2988 RMK A01 T02340032  RH  027%=      5-min Rain = 0
KCH1 182132Z 18005KT 23/03 A2988 RMK A01 T02340030  RH  026%=      5-min Rain = 0
KCH1 182133Z 17005KT 23/03 A2987 RMK A01 T02340032  RH  027%=      5-min Rain = 0
KCH1 182134Z 17007KT 24/03 A2988 RMK A01 T02350031  RH  026%=      5-min Rain = 0
KCH1 182135Z 20004KT 23/03 A2988 RMK A01 T02340031  RH  027%=      5-min Rain = 0
KCH1 182136Z 19004KT 23/04 A2988 RMK A01 T02340035  RH  027%=      5-min Rain = 0
KCH1 182137Z 19005KT 24/03 A2988 RMK A01 T02370034  RH  027%=      5-min Rain = 0
KCH1 182138Z 22006KT 24/03 A2988 RMK A01 T02370033  RH  026%=      5-min Rain = 0
KCH1 182139Z 23005KT 24/03 A2988 RMK A01 T02360033  RH  027%=      5-min Rain = 0
KCH1 182140Z 23006KT 24/03 A2988 RMK A01 T02350032  RH  027%=      5-min Rain = 0
KCH1 182141Z 23007KT 24/03 A2988 RMK A01 T02350032  RH  027%=      5-min Rain = 0
KCH1 182142Z 22008KT 23/03 A2988 RMK A01 T02340031  RH  027%=      5-min Rain = 0
KCH1 182143Z 20006KT 23/03 A2988 RMK A01 T02330033  RH  027%=      5-min Rain = 0
KCH1 182144Z 20006KT 23/03 A2988 RMK A01 T02330033  RH  027%=      5-min Rain = 0
KCH1 182145Z 19008KT 23/03 A2988 RMK A01 T02330031  RH  027%=      5-min Rain = 0
KCH1 182146Z 19007KT 23/03 A2987 RMK A01 T02330029  RH  026%=      5-min Rain = 0
KCH1 182147Z 19008KT 23/03 A2987 RMK A01 T02330030  RH  026%=      5-min Rain = 0
KCH1 182148Z 18005KT 23/03 A2987 RMK A01 T02330032  RH  027%=      5-min Rain = 0
KCH1 182149Z 18007KT 23/03 A2987 RMK A01 T02340034  RH  027%=      5-min Rain = 0
KCH1 182150Z 19007KT 24/03 A2987 RMK A01 T02350033  RH  027%=      5-min Rain = 0
KCH1 182151Z 19005KT 23/04 A2987 RMK A01 T02340035  RH  027%=      5-min Rain = 0
KCH1 182152Z 19006KT 24/03 A2987 RMK A01 T02350033  RH  027%=      5-min Rain = 0
KCH1 182153Z 21004KT 23/03 A2987 RMK A01 T02340034  RH  027%=      5-min Rain = 0
KCH1 182154Z 22003KT 23/04 A2987 RMK A01 T02340035  RH  027%=      5-min Rain = 0
KCH1 182155Z 20002KT 23/04 A2987 RMK A01 T02340036  RH  027%=      5-min Rain = 0
KCH1 182156Z 18005KT 24/04 A2987 RMK A01 T02360035  RH  027%=      5-min Rain = 0
KCH1 182157Z 19004KT 24/04 A2987 RMK A01 T02370035  RH  027%=      5-min Rain = 0
KCH1 182158Z 17006KT 24/03 A2987 RMK A01 T02360034  RH  027%=      5-min Rain = 0
KCH1 182159Z 17006KT 24/03 A2987 RMK A01 T02350033  RH  027%=      5-min Rain = 0
KCH1 182200Z 19004KT 23/03 A2987 RMK A01 T02340032  RH  027%=      5-min Rain = 0
KCH1 182201Z 17004KT 23/03 A2987 RMK A01 T02330033  RH  027%=      5-min Rain = 0
KCH1 182202Z 16004KT 23/03 A2987 RMK A01 T02330033  RH  027%=      5-min Rain = 0
KCH1 182203Z 18003KT 23/03 A2987 RMK A01 T02340034  RH  027%=      5-min Rain = 0
KCH1 182204Z 21003KT 24/03 A2987 RMK A01 T02350034  RH  027%=      5-min Rain = 0
KCH1 182205Z 18004KT 24/03 A2987 RMK A01 T02360031  RH  026%=      5-min Rain = 0
KCH1 182206Z 19003KT 24/03 A2987 RMK A01 T02360032  RH  026%=      5-min Rain = 0
KCH1 182207Z 19003KT 24/03 A2987 RMK A01 T02360033  RH  027%=      5-min Rain = 0
KCH1 182208Z 18003KT 24/03 A2987 RMK A01 T02360029  RH  026%=      5-min Rain = 0
KCH1 182209Z 17005KT 24/03 A2987 RMK A01 T02370029  RH  026%=      5-min Rain = 0
KCH1 182210Z 19004KT 24/03 A2987 RMK A01 T02370028  RH  026%=      5-min Rain = 0
KCH1 182211Z 19005KT 24/03 A2987 RMK A01 T02370031  RH  026%=      5-min Rain = 0
KCH1 182212Z 20006KT 24/03 A2987 RMK A01 T02360033  RH  027%=      5-min Rain = 0
KCH1 182213Z 17004KT 24/03 A2987 RMK A01 T02350034  RH  027%=      5-min Rain = 0
KCH1 182214Z 16004KT 24/04 A2987 RMK A01 T02350035  RH  027%=      5-min Rain = 0
KCH1 182215Z 16005KT 24/04 A2987 RMK A01 T02350036  RH  027%=      5-min Rain = 0
KCH1 182216Z 15006KT 24/04 A2987 RMK A01 T02350035  RH  027%=      5-min Rain = 0
KCH1 182217Z 15006KT 24/04 A2987 RMK A01 T02350036  RH  027%=      5-min Rain = 0
KCH1 182218Z 16005KT 23/03 A2987 RMK A01 T02340034  RH  027%=      5-min Rain = 0
KCH1 182219Z 17004KT 23/04 A2987 RMK A01 T02330035  RH  027%=      5-min Rain = 0
KCH1 182220Z 17005KT 23/04 A2988 RMK A01 T02330036  RH  028%=      5-min Rain = 0
KCH1 182221Z 17004KT 23/04 A2988 RMK A01 T02340037  RH  028%=      5-min Rain = 0
KCH1 182222Z 17003KT 23/04 A2988 RMK A01 T02340037  RH  028%=      5-min Rain = 0
KCH1 182223Z 20004KT 24/04 A2988 RMK A01 T02350037  RH  027%=      5-min Rain = 0
KCH1 182224Z 20004KT 24/03 A2988 RMK A01 T02360034  RH  027%=      5-min Rain = 0
KCH1 182225Z 18003KT 24/04 A2988 RMK A01 T02360037  RH  027%=      5-min Rain = 0
KCH1 182226Z 17004KT 24/04 A2988 RMK A01 T02360036  RH  027%=      5-min Rain = 0
KCH1 182227Z 19003KT 24/04 A2988 RMK A01 T02350036  RH  027%=      5-min Rain = 0
KCH1 182228Z 20003KT 24/04 A2988 RMK A01 T02350036  RH  027%=      5-min Rain = 0
KCH1 182229Z 22002KT 24/04 A2988 RMK A01 T02350035  RH  027%=      5-min Rain = 0
KCH1 182230Z 19003KT 24/03 A2988 RMK A01 T02350031  RH  026%=      5-min Rain = 0
KCH1 182231Z 16001KT 24/03 A2988 RMK A01 T02350031  RH  026%=      5-min Rain = 0
KCH1 182232Z 14002KT 24/03 A2988 RMK A01 T02350033  RH  027%=      5-min Rain = 0
KCH1 182233Z 14003KT 24/03 A2988 RMK A01 T02350034  RH  027%=      5-min Rain = 0
KCH1 182234Z 15004KT 24/04 A2988 RMK A01 T02350035  RH  027%=      5-min Rain = 0
KCH1 182235Z 16005KT 24/04 A2988 RMK A01 T02350036  RH  027%=      5-min Rain = 0
KCH1 182236Z 16005KT 23/04 A2988 RMK A01 T02330036  RH  028%=      5-min Rain = 0
KCH1 182237Z 16005KT 23/04 A2988 RMK A01 T02320036  RH  028%=      5-min Rain = 0
KCH1 182238Z 15005KT 23/04 A2988 RMK A01 T02310036  RH  028%=      5-min Rain = 0
KCH1 182239Z 15005KT 23/04 A2988 RMK A01 T02310036  RH  028%=      5-min Rain = 0
KCH1 182240Z 15004KT 23/04 A2988 RMK A01 T02300035  RH  028%=      5-min Rain = 0
KCH1 182241Z 14004KT 23/04 A2988 RMK A01 T02300036  RH  028%=      5-min Rain = 0
KCH1 182242Z 15005KT 23/04 A2988 RMK A01 T02300038  RH  028%=      5-min Rain = 0
KCH1 182243Z 15005KT 23/04 A2988 RMK A01 T02300037  RH  028%=      5-min Rain = 0
KCH1 182244Z 16005KT 23/04 A2988 RMK A01 T02300037  RH  028%=      5-min Rain = 0
KCH1 182245Z 15004KT 23/04 A2988 RMK A01 T02300037  RH  028%=      5-min Rain = 0
KCH1 182246Z 15005KT 23/04 A2988 RMK A01 T02290037  RH  029%=      5-min Rain = 0
KCH1 182247Z 15004KT 23/04 A2989 RMK A01 T02290038  RH  029%=      5-min Rain = 0
KCH1 182248Z 15004KT 23/04 A2989 RMK A01 T02290039  RH  029%=      5-min Rain = 0
KCH1 182249Z 14005KT 23/04 A2989 RMK A01 T02280037  RH  029%=      5-min Rain = 0
KCH1 182250Z 14005KT 23/04 A2989 RMK A01 T02280038  RH  029%=      5-min Rain = 0
KCH1 182251Z 15005KT 23/04 A2989 RMK A01 T02270037  RH  029%=      5-min Rain = 0
KCH1 182252Z 14005KT 23/04 A2989 RMK A01 T02260037  RH  029%=      5-min Rain = 0
KCH1 182253Z 15006KT 23/04 A2989 RMK A01 T02260037  RH  029%=      5-min Rain = 0
KCH1 182254Z 14005KT 23/04 A2989 RMK A01 T02250036  RH  029%=      5-min Rain = 0
KCH1 182255Z 14005KT 23/04 A2989 RMK A01 T02250038  RH  029%=      5-min Rain = 0
KCH1 182256Z 15006KT 23/04 A2989 RMK A01 T02250037  RH  029%=      5-min Rain = 0
KCH1 182257Z 14005KT 22/04 A2989 RMK A01 T02240036  RH  029%=      5-min Rain = 0
KCH1 182258Z 14004KT 22/04 A2989 RMK A01 T02240037  RH  029%=      5-min Rain = 0
KCH1 182259Z 14004KT 22/04 A2989 RMK A01 T02230038  RH  030%=      5-min Rain = 0
KCH1 182300Z 14004KT 22/04 A2989 RMK A01 T02230038  RH  030%=      5-min Rain = 0
KCH1 182301Z 15004KT 22/04 A2989 RMK A01 T02220038  RH  030%=      5-min Rain = 0
KCH1 182302Z 14005KT 22/04 A2989 RMK A01 T02220038  RH  030%=      5-min Rain = 0
KCH1 182303Z 14004KT 22/04 A2989 RMK A01 T02210038  RH  030%=      5-min Rain = 0
KCH1 182304Z 14004KT 22/04 A2989 RMK A01 T02210038  RH  030%=      5-min Rain = 0
KCH1 182305Z 14004KT 22/04 A2989 RMK A01 T02200038  RH  030%=      5-min Rain = 0
KCH1 182306Z 14005KT 22/04 A2989 RMK A01 T02200038  RH  030%=      5-min Rain = 0
KCH1 182307Z 16004KT 22/04 A2989 RMK A01 T02190038  RH  030%=      5-min Rain = 0
KCH1 182308Z 15005KT 22/04 A2989 RMK A01 T02190038  RH  031%=      5-min Rain = 0
KCH1 182309Z 14005KT 22/04 A2989 RMK A01 T02190038  RH  031%=      5-min Rain = 0
KCH1 182310Z 15005KT 22/04 A2989 RMK A01 T02180038  RH  031%=      5-min Rain = 0
KCH1 182311Z 14005KT 22/04 A2989 RMK A01 T02170038  RH  031%=      5-min Rain = 0
KCH1 182312Z 15005KT 22/04 A2989 RMK A01 T02160039  RH  031%=      5-min Rain = 0
KCH1 182313Z 15005KT 22/04 A2989 RMK A01 T02150038  RH  031%=      5-min Rain = 0
KCH1 182314Z 15005KT 22/04 A2989 RMK A01 T02150038  RH  031%=      5-min Rain = 0
KCH1 182315Z 15004KT 21/04 A2989 RMK A01 T02140038  RH  032%=      5-min Rain = 0
KCH1 182316Z 15004KT 21/04 A2989 RMK A01 T02130038  RH  032%=      5-min Rain = 0
KCH1 182317Z 15004KT 21/04 A2989 RMK A01 T02130038  RH  032%=      5-min Rain = 0
KCH1 182318Z 15003KT 21/04 A2989 RMK A01 T02120039  RH  032%=      5-min Rain = 0
KCH1 182319Z 15005KT 21/04 A2989 RMK A01 T02110039  RH  032%=      5-min Rain = 0
KCH1 182320Z 15004KT 21/04 A2989 RMK A01 T02110038  RH  032%=      5-min Rain = 0
KCH1 182321Z 15004KT 21/04 A2989 RMK A01 T02100039  RH  032%=      5-min Rain = 0
KCH1 182322Z 15004KT 21/04 A2989 RMK A01 T02100039  RH  033%=      5-min Rain = 0
KCH1 182323Z 14004KT 21/04 A2989 RMK A01 T02090039  RH  033%=      5-min Rain = 0
KCH1 182324Z 14004KT 21/04 A2989 RMK A01 T02090039  RH  033%=      5-min Rain = 0
KCH1 182325Z 14004KT 21/04 A2989 RMK A01 T02080039  RH  033%=      5-min Rain = 0
KCH1 182326Z 14004KT 21/04 A2989 RMK A01 T02080039  RH  033%=      5-min Rain = 0
KCH1 182327Z 14004KT 21/04 A2989 RMK A01 T02070039  RH  033%=      5-min Rain = 0
KCH1 182328Z 14004KT 21/04 A2989 RMK A01 T02070039  RH  033%=      5-min Rain = 0
KCH1 182329Z 14004KT 21/04 A2989 RMK A01 T02060039  RH  033%=      5-min Rain = 0
KCH1 182330Z 14005KT 21/04 A2989 RMK A01 T02050038  RH  033%=      5-min Rain = 0
KCH1 182331Z 14005KT 20/04 A2989 RMK A01 T02040039  RH  034%=      5-min Rain = 0
KCH1 182332Z 13005KT 20/04 A2989 RMK A01 T02040038  RH  034%=      5-min Rain = 0
KCH1 182333Z 14005KT 20/04 A2989 RMK A01 T02040039  RH  034%=      5-min Rain = 0
KCH1 182334Z 13005KT 20/04 A2989 RMK A01 T02040039  RH  034%=      5-min Rain = 0
KCH1 182335Z 13004KT 20/04 A2989 RMK A01 T02040039  RH  034%=      5-min Rain = 0
KCH1 182336Z 13004KT 20/04 A2989 RMK A01 T02030039  RH  034%=      5-min Rain = 0
KCH1 182337Z 13004KT 20/04 A2989 RMK A01 T02020039  RH  034%=      5-min Rain = 0
KCH1 182338Z 12004KT 20/04 A2989 RMK A01 T02010039  RH  034%=      5-min Rain = 0
KCH1 182339Z 12004KT 20/04 A299 RMK A01 T02010039  RH  034%=      5-min Rain = 0
KCH1 182340Z 11004KT 20/04 A299 RMK A01 T02000039  RH  035%=      5-min Rain = 0
KCH1 182341Z 11004KT 20/04 A299 RMK A01 T02000039  RH  035%=      5-min Rain = 0
KCH1 182342Z 10004KT 20/04 A299 RMK A01 T01990039  RH  035%=      5-min Rain = 0
KCH1 182343Z 10004KT 20/04 A299 RMK A01 T01980040  RH  035%=      5-min Rain = 0
KCH1 182344Z 10004KT 20/04 A299 RMK A01 T01960039  RH  035%=      5-min Rain = 0
KCH1 182345Z 09004KT 19/04 A299 RMK A01 T01940040  RH  036%=      5-min Rain = 0
KCH1 182346Z 09004KT 19/04 A299 RMK A01 T01930040  RH  036%=      5-min Rain = 0
KCH1 182347Z 09004KT 19/04 A299 RMK A01 T01920041  RH  037%=      5-min Rain = 0
KCH1 182348Z 08003KT 19/04 A299 RMK A01 T01910040  RH  037%=      5-min Rain = 0
KCH1 182349Z 08004KT 19/04 A299 RMK A01 T01900040  RH  037%=      5-min Rain = 0
KCH1 182350Z 09003KT 19/04 A299 RMK A01 T01890040  RH  037%=      5-min Rain = 0
KCH1 182351Z 08003KT 19/04 A299 RMK A01 T01880040  RH  038%=      5-min Rain = 0
KCH1 182352Z 08004KT 19/04 A299 RMK A01 T01870040  RH  038%=      5-min Rain = 0
KCH1 182353Z 08004KT 19/04 A299 RMK A01 T01860039  RH  038%=      5-min Rain = 0
KCH1 182354Z 08004KT 19/04 A299 RMK A01 T01860040  RH  038%=      5-min Rain = 0
KCH1 182355Z 08004KT 19/04 A299 RMK A01 T01850040  RH  038%=      5-min Rain = 0
KCH1 182356Z 08004KT 18/04 A299 RMK A01 T01840040  RH  038%=      5-min Rain = 0
KCH1 182357Z 09004KT 18/04 A299 RMK A01 T01830039  RH  038%=      5-min Rain = 0
KCH1 182358Z 09004KT 18/04 A299 RMK A01 T01830039  RH  039%=      5-min Rain = 0
KCH1 182359Z 09004KT 18/04 A2991 RMK A01 T01820039  RH  039%=      5-min Rain = 0
KCH1 190000Z 08004KT 18/04 A2991 RMK A01 T01820039  RH  039%=      5-min Rain = 0
KCH1 190001Z 08004KT 18/04 A2991 RMK A01 T01820039  RH  039%=      5-min Rain = 0
KCH1 190002Z 08005KT 18/04 A2991 RMK A01 T01810038  RH  039%=      5-min Rain = 0
KCH1 190003Z 08004KT 18/04 A2991 RMK A01 T01810039  RH  039%=      5-min Rain = 0
KCH1 190004Z 08004KT 18/04 A2991 RMK A01 T01810039  RH  039%=      5-min Rain = 0
KCH1 190005Z 07004KT 18/04 A2991 RMK A01 T01810039  RH  039%=      5-min Rain = 0
KCH1 190006Z 08004KT 18/04 A2991 RMK A01 T01800039  RH  039%=      5-min Rain = 0
KCH1 190007Z 08004KT 18/04 A2991 RMK A01 T01790039  RH  039%=      5-min Rain = 0
KCH1 190008Z 08004KT 18/04 A2991 RMK A01 T01780039  RH  040%=      5-min Rain = 0
KCH1 190009Z 08004KT 18/04 A2991 RMK A01 T01770039  RH  040%=      5-min Rain = 0
KCH1 190010Z 07004KT 18/04 A2991 RMK A01 T01760039  RH  040%=      5-min Rain = 0
KCH1 190011Z 08004KT 18/04 A2991 RMK A01 T01750039  RH  040%=      5-min Rain = 0
KCH1 190012Z 07004KT 18/04 A2991 RMK A01 T01750039  RH  040%=      5-min Rain = 0
KCH1 190013Z 08004KT 17/04 A2991 RMK A01 T01740039  RH  041%=      5-min Rain = 0
KCH1 190014Z 07004KT 17/04 A2991 RMK A01 T01730039  RH  041%=      5-min Rain = 0
KCH1 190015Z 07004KT 17/04 A2991 RMK A01 T01720038  RH  041%=      5-min Rain = 0
KCH1 190016Z 08004KT 17/04 A2991 RMK A01 T01720039  RH  041%=      5-min Rain = 0
KCH1 190017Z 08004KT 17/04 A2991 RMK A01 T01710038  RH  041%=      5-min Rain = 0
KCH1 190018Z 07004KT 17/04 A2991 RMK A01 T01700038  RH  041%=      5-min Rain = 0
KCH1 190019Z 07004KT 17/04 A2991 RMK A01 T01700038  RH  041%=      5-min Rain = 0
KCH1 190020Z 07004KT 17/04 A2991 RMK A01 T01690037  RH  041%=      5-min Rain = 0
KCH1 190021Z 07004KT 17/04 A2991 RMK A01 T01690038  RH  042%=      5-min Rain = 0
KCH1 190022Z 07004KT 17/04 A2991 RMK A01 T01680037  RH  042%=      5-min Rain = 0
KCH1 190023Z 07004KT 17/04 A2991 RMK A01 T01670037  RH  042%=      5-min Rain = 0
KCH1 190024Z 07004KT 17/04 A2991 RMK A01 T01670037  RH  042%=      5-min Rain = 0
KCH1 190025Z 07004KT 17/04 A2991 RMK A01 T01660037  RH  042%=      5-min Rain = 0
KCH1 190026Z 07004KT 17/04 A2991 RMK A01 T01660037  RH  042%=      5-min Rain = 0
KCH1 190027Z 08004KT 17/04 A2991 RMK A01 T01660037  RH  042%=      5-min Rain = 0
KCH1 190028Z 08005KT 17/04 A2991 RMK A01 T01660037  RH  042%=      5-min Rain = 0
KCH1 190029Z 07005KT 17/04 A2991 RMK A01 T01660037  RH  042%=      5-min Rain = 0
KCH1 190030Z 07005KT 17/04 A2991 RMK A01 T01660037  RH  042%=      5-min Rain = 0
KCH1 190031Z 07005KT 17/04 A2991 RMK A01 T01650037  RH  042%=      5-min Rain = 0
KCH1 190032Z 07005KT 17/04 A2991 RMK A01 T01650037  RH  043%=      5-min Rain = 0
KCH1 190033Z 07005KT 16/04 A2991 RMK A01 T01640037  RH  043%=      5-min Rain = 0
KCH1 190034Z 07005KT 16/04 A2991 RMK A01 T01630037  RH  043%=      5-min Rain = 0
KCH1 190035Z 07005KT 16/04 A2991 RMK A01 T01620037  RH  043%=      5-min Rain = 0
KCH1 190036Z 07004KT 16/04 A2991 RMK A01 T01610037  RH  043%=      5-min Rain = 0
KCH1 190037Z 07004KT 16/04 A2991 RMK A01 T01600036  RH  044%=      5-min Rain = 0
KCH1 190038Z 06004KT 16/04 A2991 RMK A01 T01590037  RH  044%=      5-min Rain = 0
KCH1 190039Z 06004KT 16/04 A2991 RMK A01 T01580036  RH  044%=      5-min Rain = 0
KCH1 190040Z 06004KT 16/04 A2991 RMK A01 T01580036  RH  044%=      5-min Rain = 0
KCH1 190041Z 06004KT 16/04 A2991 RMK A01 T01570036  RH  044%=      5-min Rain = 0
KCH1 190042Z 06004KT 16/04 A2991 RMK A01 T01570036  RH  044%=      5-min Rain = 0
KCH1 190043Z 06004KT 16/04 A2991 RMK A01 T01570036  RH  045%=      5-min Rain = 0
KCH1 190044Z 06004KT 16/04 A2991 RMK A01 T01560037  RH  045%=      5-min Rain = 0
KCH1 190045Z 06004KT 16/04 A2991 RMK A01 T01560036  RH  045%=      5-min Rain = 0
KCH1 190046Z 06004KT 16/04 A2991 RMK A01 T01560036  RH  045%=      5-min Rain = 0
KCH1 190047Z 06004KT 16/04 A2991 RMK A01 T01560036  RH  045%=      5-min Rain = 0
KCH1 190048Z 06004KT 16/04 A2991 RMK A01 T01550036  RH  045%=      5-min Rain = 0
KCH1 190049Z 06004KT 15/04 A2991 RMK A01 T01540036  RH  045%=      5-min Rain = 0
KCH1 190050Z 06004KT 15/04 A2991 RMK A01 T01530036  RH  046%=      5-min Rain = 0
KCH1 190051Z 06004KT 15/04 A2991 RMK A01 T01520037  RH  046%=      5-min Rain = 0
KCH1 190052Z 06004KT 15/04 A2991 RMK A01 T01510036  RH  046%=      5-min Rain = 0
KCH1 190053Z 06004KT 15/04 A2991 RMK A01 T01500036  RH  046%=      5-min Rain = 0
KCH1 190054Z 06004KT 15/04 A2991 RMK A01 T01490037  RH  047%=      5-min Rain = 0
KCH1 190055Z 06004KT 15/04 A2991 RMK A01 T01490037  RH  047%=      5-min Rain = 0
KCH1 190056Z 06004KT 15/04 A2991 RMK A01 T01480036  RH  047%=      5-min Rain = 0
KCH1 190057Z 06004KT 15/04 A2991 RMK A01 T01480036  RH  047%=      5-min Rain = 0
KCH1 190058Z 06004KT 15/04 A2991 RMK A01 T01470037  RH  047%=      5-min Rain = 0
KCH1 190059Z 06004KT 15/04 A2991 RMK A01 T01470037  RH  048%=      5-min Rain = 0
KCH1 190100Z 06004KT 15/04 A2991 RMK A01 T01470037  RH  048%=      5-min Rain = 0
KCH1 190101Z 06004KT 15/04 A2991 RMK A01 T01460037  RH  048%=      5-min Rain = 0
KCH1 190102Z 06004KT 15/04 A2991 RMK A01 T01460037  RH  048%=      5-min Rain = 0
KCH1 190103Z 06003KT 15/04 A2991 RMK A01 T01450037  RH  048%=      5-min Rain = 0
KCH1 190104Z 06003KT 15/04 A2991 RMK A01 T01450037  RH  048%=      5-min Rain = 0
KCH1 190105Z 06003KT 15/04 A2991 RMK A01 T01450037  RH  048%=      5-min Rain = 0
KCH1 190106Z 07003KT 15/04 A2991 RMK A01 T01450037  RH  048%=      5-min Rain = 0
KCH1 190107Z 07003KT 14/04 A2991 RMK A01 T01440037  RH  048%=      5-min Rain = 0
KCH1 190108Z 07003KT 14/04 A2991 RMK A01 T01440037  RH  048%=      5-min Rain = 0
KCH1 190109Z 07003KT 14/04 A2991 RMK A01 T01440036  RH  048%=      5-min Rain = 0
KCH1 190110Z 08003KT 14/04 A2991 RMK A01 T01440036  RH  048%=      5-min Rain = 0
KCH1 190111Z 08002KT 14/04 A2991 RMK A01 T01440036  RH  048%=      5-min Rain = 0
KCH1 190112Z 08002KT 14/04 A2991 RMK A01 T01440035  RH  048%=      5-min Rain = 0
KCH1 190113Z 09002KT 14/04 A2991 RMK A01 T01440036  RH  048%=      5-min Rain = 0
KCH1 190114Z 09002KT 14/04 A2991 RMK A01 T01430036  RH  049%=      5-min Rain = 0
KCH1 190115Z 10002KT 14/04 A2991 RMK A01 T01420036  RH  049%=      5-min Rain = 0
KCH1 190116Z 10002KT 14/04 A2991 RMK A01 T01420036  RH  049%=      5-min Rain = 0
KCH1 190117Z 10002KT 14/04 A2991 RMK A01 T01410036  RH  049%=      5-min Rain = 0
KCH1 190118Z 10002KT 14/04 A2991 RMK A01 T01410036  RH  049%=      5-min Rain = 0
KCH1 190119Z 09002KT 14/04 A2991 RMK A01 T01400035  RH  049%=      5-min Rain = 0
KCH1 190120Z 09002KT 14/04 A2991 RMK A01 T01410036  RH  049%=      5-min Rain = 0
KCH1 190121Z 10001KT 14/04 A2991 RMK A01 T01410036  RH  049%=      5-min Rain = 0
KCH1 190122Z 11002KT 14/04 A2991 RMK A01 T01410036  RH  049%=      5-min Rain = 0
KCH1 190123Z 11001KT 14/04 A2991 RMK A01 T01410035  RH  049%=      5-min Rain = 0
KCH1 190124Z 11001KT 14/04 A2991 RMK A01 T01410036  RH  049%=      5-min Rain = 0
KCH1 190125Z 11001KT 14/04 A2991 RMK A01 T01410035  RH  049%=      5-min Rain = 0
KCH1 190126Z 11001KT 14/04 A2991 RMK A01 T01410035  RH  049%=      5-min Rain = 0
KCH1 190127Z 12001KT 14/04 A2991 RMK A01 T01410035  RH  049%=      5-min Rain = 0
KCH1 190128Z 12001KT 14/04 A2991 RMK A01 T01400035  RH  049%=      5-min Rain = 0
KCH1 190129Z 10001KT 14/04 A2991 RMK A01 T01400036  RH  049%=      5-min Rain = 0
KCH1 190130Z 09001KT 14/04 A2991 RMK A01 T01400035  RH  049%=      5-min Rain = 0
KCH1 190131Z 10002KT 14/04 A2991 RMK A01 T01410035  RH  049%=      5-min Rain = 0
KCH1 190132Z 10001KT 14/04 A2991 RMK A01 T01420035  RH  049%=      5-min Rain = 0
KCH1 190133Z 10002KT 14/04 A2991 RMK A01 T01420035  RH  048%=      5-min Rain = 0
KCH1 190134Z 10002KT 14/04 A2991 RMK A01 T01430035  RH  048%=      5-min Rain = 0
KCH1 190135Z 08002KT 14/04 A2991 RMK A01 T01420035  RH  048%=      5-min Rain = 0
KCH1 190136Z 09002KT 14/04 A2991 RMK A01 T01430035  RH  048%=      5-min Rain = 0
KCH1 190137Z 08002KT 14/04 A2991 RMK A01 T01420035  RH  049%=      5-min Rain = 0
KCH1 190138Z 08002KT 14/04 A2991 RMK A01 T01410035  RH  049%=      5-min Rain = 0
KCH1 190139Z 08002KT 14/04 A2991 RMK A01 T01410035  RH  049%=      5-min Rain = 0
KCH1 190140Z 07002KT 14/04 A2991 RMK A01 T01400035  RH  049%=      5-min Rain = 0
KCH1 190141Z 07002KT 14/04 A2991 RMK A01 T01390035  RH  049%=      5-min Rain = 0
KCH1 190142Z 07002KT 14/04 A2991 RMK A01 T01380035  RH  050%=      5-min Rain = 0
KCH1 190143Z 07003KT 14/04 A2991 RMK A01 T01370035  RH  050%=      5-min Rain = 0
KCH1 190144Z 06003KT 14/03 A2991 RMK A01 T01370034  RH  050%=      5-min Rain = 0
KCH1 190145Z 06003KT 14/03 A2991 RMK A01 T01360034  RH  050%=      5-min Rain = 0
KCH1 190146Z 06003KT 14/03 A2991 RMK A01 T01360034  RH  050%=      5-min Rain = 0
KCH1 190147Z 06003KT 14/03 A2992 RMK A01 T01350034  RH  050%=      5-min Rain = 0
KCH1 190148Z 06003KT 13/03 A2992 RMK A01 T01340034  RH  050%=      5-min Rain = 0
KCH1 190149Z 06004KT 13/03 A2992 RMK A01 T01330034  RH  051%=      5-min Rain = 0
KCH1 190150Z 06004KT 13/03 A2992 RMK A01 T01330034  RH  051%=      5-min Rain = 0
KCH1 190151Z 06004KT 13/03 A2992 RMK A01 T01310034  RH  051%=      5-min Rain = 0
KCH1 190152Z 06004KT 13/03 A2992 RMK A01 T01300033  RH  052%=      5-min Rain = 0
KCH1 190153Z 06004KT 13/03 A2992 RMK A01 T01300033  RH  052%=      5-min Rain = 0
KCH1 190154Z 06003KT 13/03 A2992 RMK A01 T01300032  RH  052%=      5-min Rain = 0
KCH1 190155Z 06003KT 13/03 A2992 RMK A01 T01310033  RH  051%=      5-min Rain = 0
KCH1 190156Z 06004KT 13/03 A2992 RMK A01 T01320033  RH  051%=      5-min Rain = 0
KCH1 190157Z 06004KT 13/03 A2992 RMK A01 T01320032  RH  051%=      5-min Rain = 0
KCH1 190158Z 07003KT 13/03 A2992 RMK A01 T01330032  RH  050%=      5-min Rain = 0
KCH1 190159Z 06004KT 13/03 A2992 RMK A01 T01340032  RH  050%=      5-min Rain = 0
KCH1 190200Z 06004KT 13/03 A2992 RMK A01 T01340033  RH  050%=      5-min Rain = 0
KCH1 190201Z 06004KT 13/03 A2992 RMK A01 T01340033  RH  050%=      5-min Rain = 0
KCH1 190202Z 06004KT 13/03 A2992 RMK A01 T01330033  RH  050%=      5-min Rain = 0
KCH1 190203Z 06004KT 13/03 A2993 RMK A01 T01330033  RH  051%=      5-min Rain = 0
KCH1 190204Z 06004KT 13/03 A2993 RMK A01 T01320033  RH  051%=      5-min Rain = 0
KCH1 190205Z 06004KT 13/03 A2993 RMK A01 T01310033  RH  051%=      5-min Rain = 0
KCH1 190206Z 06005KT 13/03 A2993 RMK A01 T01290032  RH  052%=      5-min Rain = 0
KCH1 190207Z 06005KT 13/03 A2993 RMK A01 T01290032  RH  052%=      5-min Rain = 0
KCH1 190208Z 06005KT 13/03 A2993 RMK A01 T01280033  RH  052%=      5-min Rain = 0
KCH1 190209Z 05005KT 13/03 A2993 RMK A01 T01260033  RH  053%=      5-min Rain = 0
KCH1 190210Z 05005KT 12/03 A2993 RMK A01 T01240033  RH  054%=      5-min Rain = 0
KCH1 190211Z 05005KT 12/03 A2993 RMK A01 T01230033  RH  054%=      5-min Rain = 0
KCH1 190212Z 06005KT 12/03 A2993 RMK A01 T01220033  RH  054%=      5-min Rain = 0
KCH1 190213Z 06004KT 12/03 A2993 RMK A01 T01220032  RH  054%=      5-min Rain = 0
KCH1 190214Z 06004KT 12/03 A2993 RMK A01 T01240033  RH  054%=      5-min Rain = 0
KCH1 190215Z 05004KT 13/03 A2993 RMK A01 T01250032  RH  053%=      5-min Rain = 0
KCH1 190216Z 05004KT 13/03 A2993 RMK A01 T01260032  RH  053%=      5-min Rain = 0
KCH1 190217Z 05004KT 13/03 A2993 RMK A01 T01270032  RH  053%=      5-min Rain = 0
KCH1 190218Z 05004KT 13/03 A2993 RMK A01 T01270032  RH  052%=      5-min Rain = 0
KCH1 190219Z 05004KT 13/03 A2993 RMK A01 T01270032  RH  052%=      5-min Rain = 0
KCH1 190220Z 05004KT 13/03 A2993 RMK A01 T01270032  RH  052%=      5-min Rain = 0
KCH1 190221Z 05004KT 13/03 A2994 RMK A01 T01270032  RH  052%=      5-min Rain = 0
KCH1 190222Z 05004KT 13/03 A2994 RMK A01 T01270032  RH  052%=      5-min Rain = 0
KCH1 190223Z 04004KT 13/03 A2994 RMK A01 T01270032  RH  052%=      5-min Rain = 0
KCH1 190224Z 05004KT 13/03 A2994 RMK A01 T01270032  RH  052%=      5-min Rain = 0
KCH1 190225Z 04003KT 13/03 A2994 RMK A01 T01270032  RH  052%=      5-min Rain = 0
KCH1 190226Z 04003KT 13/03 A2994 RMK A01 T01270032  RH  052%=      5-min Rain = 0
KCH1 190227Z 04003KT 13/03 A2994 RMK A01 T01270032  RH  052%=      5-min Rain = 0
KCH1 190228Z 04003KT 13/03 A2994 RMK A01 T01270032  RH  052%=      5-min Rain = 0
KCH1 190229Z 04003KT 13/03 A2994 RMK A01 T01270033  RH  053%=      5-min Rain = 0
KCH1 190230Z 03003KT 13/03 A2994 RMK A01 T01260032  RH  053%=      5-min Rain = 0
KCH1 190231Z 03003KT 13/03 A2994 RMK A01 T01260032  RH  053%=      5-min Rain = 0
KCH1 190232Z 03003KT 13/03 A2994 RMK A01 T01260032  RH  053%=      5-min Rain = 0
KCH1 190233Z 03003KT 13/03 A2994 RMK A01 T01260032  RH  053%=      5-min Rain = 0
KCH1 190234Z 03003KT 13/03 A2994 RMK A01 T01270032  RH  052%=      5-min Rain = 0
KCH1 190235Z 03003KT 13/03 A2994 RMK A01 T01270032  RH  052%=      5-min Rain = 0
KCH1 190236Z 03003KT 13/03 A2994 RMK A01 T01270032  RH  052%=      5-min Rain = 0
KCH1 190237Z 04003KT 13/03 A2994 RMK A01 T01270032  RH  052%=      5-min Rain = 0
KCH1 190238Z 03003KT 13/03 A2994 RMK A01 T01270032  RH  052%=      5-min Rain = 0
KCH1 190239Z 03003KT 13/03 A2994 RMK A01 T01270032  RH  052%=      5-min Rain = 0
KCH1 190240Z 03003KT 13/03 A2994 RMK A01 T01270032  RH  053%=      5-min Rain = 0
KCH1 190241Z 03002KT 13/03 A2994 RMK A01 T01260032  RH  053%=      5-min Rain = 0
KCH1 190242Z 03002KT 13/03 A2994 RMK A01 T01260032  RH  053%=      5-min Rain = 0
KCH1 190243Z 04002KT 13/03 A2994 RMK A01 T01250032  RH  053%=      5-min Rain = 0
KCH1 190244Z 03002KT 13/03 A2994 RMK A01 T01250032  RH  053%=      5-min Rain = 0
KCH1 190245Z 03002KT 12/03 A2995 RMK A01 T01240032  RH  053%=      5-min Rain = 0
KCH1 190246Z 03001KT 12/03 A2995 RMK A01 T01220032  RH  054%=      5-min Rain = 0
KCH1 190247Z 02001KT 12/03 A2995 RMK A01 T01210032  RH  054%=      5-min Rain = 0
KCH1 190248Z 01001KT 12/03 A2995 RMK A01 T01210032  RH  055%=      5-min Rain = 0
KCH1 190249Z 00001KT 12/03 A2995 RMK A01 T01200032  RH  055%=      5-min Rain = 0
KCH1 190250Z 01001KT 12/03 A2995 RMK A01 T01200032  RH  055%=      5-min Rain = 0
KCH1 190251Z 01001KT 12/03 A2995 RMK A01 T01210032  RH  055%=      5-min Rain = 0
KCH1 190252Z 02001KT 12/03 A2995 RMK A01 T01200032  RH  055%=      5-min Rain = 0
KCH1 190253Z 02001KT 12/03 A2995 RMK A01 T01200032  RH  055%=      5-min Rain = 0
KCH1 190254Z 04002KT 12/03 A2995 RMK A01 T01200034  RH  055%=      5-min Rain = 0
KCH1 190255Z 04002KT 12/03 A2995 RMK A01 T01210033  RH  055%=      5-min Rain = 0
KCH1 190256Z 04002KT 12/03 A2995 RMK A01 T01220034  RH  055%=      5-min Rain = 0
KCH1 190257Z 04002KT 12/04 A2995 RMK A01 T01230035  RH  055%=      5-min Rain = 0
KCH1 190258Z 04002KT 12/04 A2995 RMK A01 T01230035  RH  055%=      5-min Rain = 0
KCH1 190259Z 04002KT 13/04 A2995 RMK A01 T01250036  RH  055%=      5-min Rain = 0
KCH1 190300Z 03001KT 12/04 A2995 RMK A01 T01240039  RH  056%=      5-min Rain = 0
KCH1 190301Z 03001KT 12/05 A2995 RMK A01 T01220045  RH  059%=      5-min Rain = 0
KCH1 190302Z 03002KT 12/05 A2995 RMK A01 T01190046  RH  061%=      5-min Rain = 0
KCH1 190303Z 03001KT 12/05 A2995 RMK A01 T01180047  RH  062%=      5-min Rain = 0
KCH1 190304Z 03002KT 12/05 A2995 RMK A01 T01160047  RH  063%=      5-min Rain = 0
KCH1 190305Z 03002KT 12/04 A2996 RMK A01 T01160043  RH  061%=      5-min Rain = 0
KCH1 190306Z 02001KT 12/04 A2996 RMK A01 T01170042  RH  060%=      5-min Rain = 0
KCH1 190307Z 01001KT 12/04 A2996 RMK A01 T01190044  RH  060%=      5-min Rain = 0
KCH1 190308Z 01001KT 12/06 A2996 RMK A01 T01190055  RH  065%=      5-min Rain = 0
KCH1 190309Z 01001KT 12/06 A2996 RMK A01 T01170058  RH  067%=      5-min Rain = 0
KCH1 190310Z 00001KT 11/06 A2996 RMK A01 T01140058  RH  068%=      5-min Rain = 0
KCH1 190311Z 00002KT 11/06 A2996 RMK A01 T01130059  RH  069%=      5-min Rain = 0
KCH1 190312Z 00002KT 11/06 A2996 RMK A01 T01120056  RH  069%=      5-min Rain = 0
KCH1 190313Z 36002KT 11/05 A2996 RMK A01 T01120053  RH  067%=      5-min Rain = 0
KCH1 190314Z 35002KT 11/06 A2996 RMK A01 T01120055  RH  068%=      5-min Rain = 0
KCH1 190315Z 36002KT 11/06 A2996 RMK A01 T01120057  RH  069%=      5-min Rain = 0
KCH1 190316Z 36002KT 11/06 A2996 RMK A01 T01120055  RH  068%=      5-min Rain = 0
KCH1 190317Z 36002KT 11/06 A2996 RMK A01 T01130055  RH  068%=      5-min Rain = 0
KCH1 190318Z 35002KT 11/05 A2996 RMK A01 T01120053  RH  067%=      5-min Rain = 0
KCH1 190319Z 35002KT 11/05 A2996 RMK A01 T01120052  RH  067%=      5-min Rain = 0
KCH1 190320Z 34002KT 11/05 A2996 RMK A01 T01120054  RH  067%=      5-min Rain = 0
KCH1 190321Z 34002KT 11/06 A2996 RMK A01 T01130057  RH  069%=      5-min Rain = 0
KCH1 190322Z 33002KT 11/06 A2996 RMK A01 T01110063  RH  072%=      5-min Rain = 0
KCH1 190323Z 33002KT 11/07 A2996 RMK A01 T01100067  RH  075%=      5-min Rain = 0
KCH1 190324Z 33003KT 11/07 A2996 RMK A01 T01090068  RH  076%=      5-min Rain = 0
KCH1 190325Z 32003KT 11/07 A2996 RMK A01 T01080068  RH  076%=      5-min Rain = 0
KCH1 190326Z 31003KT 11/07 A2996 RMK A01 T01070071  RH  079%=      5-min Rain = 0
KCH1 190327Z 31004KT 11/07 A2996 RMK A01 T01060072  RH  080%=      5-min Rain = 0
KCH1 190328Z 31004KT 11/07 A2996 RMK A01 T01050072  RH  080%=      5-min Rain = 0
KCH1 190329Z 31004KT 10/07 A2996 RMK A01 T01030072  RH  081%=      5-min Rain = 0
KCH1 190330Z 30004KT 10/07 A2996 RMK A01 T01020072  RH  081%=      5-min Rain = 0
KCH1 190331Z 30004KT 10/07 A2996 RMK A01 T01010071  RH  082%=      5-min Rain = 0
KCH1 190332Z 30004KT 10/07 A2996 RMK A01 T01000070  RH  082%=      5-min Rain = 0
KCH1 190333Z 31004KT 10/07 A2996 RMK A01 T00990070  RH  082%=      5-min Rain = 0
KCH1 190334Z 31004KT 10/07 A2996 RMK A01 T00980069  RH  082%=      5-min Rain = 0
KCH1 190335Z 31004KT 10/07 A2996 RMK A01 T00980069  RH  082%=      5-min Rain = 0
KCH1 190336Z 31004KT 10/07 A2996 RMK A01 T00980070  RH  082%=      5-min Rain = 0
KCH1 190337Z 31004KT 10/07 A2996 RMK A01 T00980070  RH  083%=      5-min Rain = 0
KCH1 190338Z 31004KT 10/07 A2996 RMK A01 T00980071  RH  083%=      5-min Rain = 0
KCH1 190339Z 31004KT 10/07 A2996 RMK A01 T00990073  RH  084%=      5-min Rain = 0
KCH1 190340Z 31004KT 10/07 A2996 RMK A01 T00990073  RH  084%=      5-min Rain = 0
KCH1 190341Z 31004KT 10/07 A2996 RMK A01 T00980073  RH  084%=      5-min Rain = 0
KCH1 190342Z 31004KT 10/07 A2996 RMK A01 T00990072  RH  083%=      5-min Rain = 0
KCH1 190343Z 31004KT 10/07 A2996 RMK A01 T00990071  RH  082%=      5-min Rain = 0
KCH1 190344Z 31004KT 10/07 A2996 RMK A01 T00990069  RH  082%=      5-min Rain = 0
KCH1 190345Z 31004KT 10/07 A2997 RMK A01 T01000070  RH  082%=      5-min Rain = 0
KCH1 190346Z 31004KT 10/07 A2997 RMK A01 T00990069  RH  082%=      5-min Rain = 0
KCH1 190347Z 31004KT 10/07 A2997 RMK A01 T01000068  RH  081%=      5-min Rain = 0
KCH1 190348Z 31004KT 10/07 A2997 RMK A01 T00990065  RH  079%=      5-min Rain = 0
KCH1 190349Z 32004KT 10/06 A2997 RMK A01 T00980064  RH  079%=      5-min Rain = 0
KCH1 190350Z 32004KT 10/06 A2997 RMK A01 T00980062  RH  078%=      5-min Rain = 0
KCH1 190351Z 31004KT 10/06 A2997 RMK A01 T00980061  RH  078%=      5-min Rain = 0
KCH1 190352Z 31004KT 10/06 A2997 RMK A01 T00980060  RH  077%=      5-min Rain = 0
KCH1 190353Z 31004KT 10/06 A2997 RMK A01 T00980059  RH  077%=      5-min Rain = 0
KCH1 190354Z 31004KT 10/06 A2997 RMK A01 T00970059  RH  077%=      5-min Rain = 0
KCH1 190355Z 30004KT 10/06 A2997 RMK A01 T00970058  RH  077%=      5-min Rain = 0
KCH1 190356Z 30004KT 10/06 A2997 RMK A01 T00960057  RH  077%=      5-min Rain = 0
KCH1 190357Z 30005KT 10/06 A2997 RMK A01 T00960057  RH  077%=      5-min Rain = 0
KCH1 190358Z 30006KT 10/06 A2997 RMK A01 T00960057  RH  077%=      5-min Rain = 0
KCH1 190359Z 30006KT 10/06 A2997 RMK A01 T00950057  RH  077%=      5-min Rain = 0
KCH1 190400Z 30005KT 09/06 A2997 RMK A01 T00940056  RH  077%=      5-min Rain = 0
KCH1 190401Z 30005KT 09/06 A2997 RMK A01 T00940056  RH  077%=      5-min Rain = 0
KCH1 190402Z 31006KT 09/06 A2997 RMK A01 T00940056  RH  077%=      5-min Rain = 0
KCH1 190403Z 31006KT 09/06 A2997 RMK A01 T00940055  RH  077%=      5-min Rain = 0
KCH1 190404Z 31005KT 10/06 A2997 RMK A01 T00950055  RH  076%=      5-min Rain = 0
KCH1 190405Z 31005KT 10/06 A2997 RMK A01 T00950055  RH  076%=      5-min Rain = 0
KCH1 190406Z 31005KT 10/06 A2997 RMK A01 T00950055  RH  076%=      5-min Rain = 0
KCH1 190407Z 31005KT 10/06 A2997 RMK A01 T00960055  RH  076%=      5-min Rain = 0
KCH1 190408Z 31005KT 10/06 A2997 RMK A01 T00960056  RH  076%=      5-min Rain = 0
KCH1 190409Z 30005KT 10/06 A2997 RMK A01 T00970057  RH  076%=      5-min Rain = 0
KCH1 190410Z 31005KT 10/06 A2997 RMK A01 T00960058  RH  077%=      5-min Rain = 0
KCH1 190411Z 31004KT 10/06 A2997 RMK A01 T00950058  RH  078%=      5-min Rain = 0
KCH1 190412Z 31005KT 10/06 A2997 RMK A01 T00950058  RH  078%=      5-min Rain = 0
KCH1 190413Z 31005KT 10/06 A2997 RMK A01 T00950058  RH  078%=      5-min Rain = 0
KCH1 190414Z 30005KT 10/06 A2997 RMK A01 T00950058  RH  078%=      5-min Rain = 0
KCH1 190415Z 30005KT 10/06 A2997 RMK A01 T00950058  RH  078%=      5-min Rain = 0
KCH1 190416Z 30005KT 10/06 A2997 RMK A01 T00950059  RH  078%=      5-min Rain = 0
KCH1 190417Z 30005KT 09/06 A2997 RMK A01 T00940058  RH  078%=      5-min Rain = 0
KCH1 190418Z 30005KT 09/06 A2997 RMK A01 T00930058  RH  079%=      5-min Rain = 0
KCH1 190419Z 30006KT 09/06 A2998 RMK A01 T00920058  RH  079%=      5-min Rain = 0
KCH1 190420Z 30006KT 09/06 A2998 RMK A01 T00920058  RH  080%=      5-min Rain = 0
KCH1 190421Z 30006KT 09/06 A2997 RMK A01 T00920058  RH  080%=      5-min Rain = 0
KCH1 190422Z 30006KT 09/06 A2997 RMK A01 T00910058  RH  080%=      5-min Rain = 0
KCH1 190423Z 30006KT 09/06 A2997 RMK A01 T00910057  RH  079%=      5-min Rain = 0
KCH1 190424Z 30006KT 09/06 A2997 RMK A01 T00910057  RH  079%=      5-min Rain = 0
KCH1 190425Z 30006KT 09/06 A2997 RMK A01 T00910056  RH  079%=      5-min Rain = 0
KCH1 190426Z 30005KT 09/06 A2997 RMK A01 T00910056  RH  079%=      5-min Rain = 0
KCH1 190427Z 31004KT 09/06 A2997 RMK A01 T00910056  RH  079%=      5-min Rain = 0
KCH1 190428Z 31005KT 09/06 A2997 RMK A01 T00910057  RH  079%=      5-min Rain = 0
KCH1 190429Z 30004KT 09/06 A2997 RMK A01 T00900057  RH  079%=      5-min Rain = 0
KCH1 190430Z 30005KT 09/06 A2997 RMK A01 T00900057  RH  079%=      5-min Rain = 0
KCH1 190431Z 30005KT 09/06 A2997 RMK A01 T00900056  RH  079%=      5-min Rain = 0
KCH1 190432Z 30005KT 09/06 A2997 RMK A01 T00900056  RH  079%=      5-min Rain = 0
KCH1 190433Z 30006KT 09/06 A2997 RMK A01 T00890056  RH  079%=      5-min Rain = 0
KCH1 190434Z 30006KT 09/06 A2997 RMK A01 T00890056  RH  080%=      5-min Rain = 0
KCH1 190435Z 30006KT 09/06 A2997 RMK A01 T00880055  RH  080%=      5-min Rain = 0
KCH1 190436Z 30006KT 09/06 A2997 RMK A01 T00880056  RH  080%=      5-min Rain = 0
KCH1 190437Z 30006KT 09/06 A2997 RMK A01 T00880055  RH  080%=      5-min Rain = 0
KCH1 190438Z 30006KT 09/06 A2997 RMK A01 T00890055  RH  079%=      5-min Rain = 0
KCH1 190439Z 31005KT 09/05 A2997 RMK A01 T00880054  RH  079%=      5-min Rain = 0
KCH1 190440Z 29004KT 09/05 A2997 RMK A01 T00880053  RH  078%=      5-min Rain = 0
KCH1 190441Z 29004KT 09/05 A2997 RMK A01 T00890053  RH  078%=      5-min Rain = 0
KCH1 190442Z 31005KT 09/05 A2997 RMK A01 T00880053  RH  078%=      5-min Rain = 0
KCH1 190443Z 31005KT 09/05 A2997 RMK A01 T00880052  RH  078%=      5-min Rain = 0
KCH1 190444Z 32005KT 09/05 A2997 RMK A01 T00880052  RH  078%=      5-min Rain = 0
KCH1 190445Z 32004KT 09/05 A2997 RMK A01 T00880052  RH  078%=      5-min Rain = 0
KCH1 190446Z 31003KT 09/05 A2997 RMK A01 T00870051  RH  078%=      5-min Rain = 0
KCH1 190447Z 30002KT 09/05 A2997 RMK A01 T00870050  RH  078%=      5-min Rain = 0
KCH1 190448Z 32002KT 09/05 A2997 RMK A01 T00860050  RH  078%=      5-min Rain = 0
KCH1 190449Z 31002KT 09/05 A2997 RMK A01 T00860050  RH  078%=      5-min Rain = 0
KCH1 190450Z 30002KT 09/05 A2997 RMK A01 T00850048  RH  078%=      5-min Rain = 0
KCH1 190451Z 31002KT 08/05 A2997 RMK A01 T00830048  RH  078%=      5-min Rain = 0
KCH1 190452Z 31002KT 08/05 A2997 RMK A01 T00830048  RH  079%=      5-min Rain = 0
KCH1 190453Z 31002KT 08/05 A2997 RMK A01 T00820048  RH  079%=      5-min Rain = 0
KCH1 190454Z 31002KT 08/05 A2997 RMK A01 T00810048  RH  080%=      5-min Rain = 0
KCH1 190455Z 32002KT 08/05 A2997 RMK A01 T00810048  RH  080%=      5-min Rain = 0
KCH1 190456Z 32002KT 08/05 A2997 RMK A01 T00800048  RH  080%=      5-min Rain = 0
KCH1 190457Z 32002KT 08/05 A2997 RMK A01 T00800046  RH  079%=      5-min Rain = 0
KCH1 190458Z 32002KT 08/05 A2997 RMK A01 T00790046  RH  080%=      5-min Rain = 0
KCH1 190459Z 33002KT 08/05 A2997 RMK A01 T00790048  RH  081%=      5-min Rain = 0
KCH1 190500Z 33002KT 08/05 A2997 RMK A01 T00780047  RH  081%=      5-min Rain = 0
KCH1 190501Z 33002KT 08/05 A2997 RMK A01 T00770046  RH  081%=      5-min Rain = 0
KCH1 190502Z 33002KT 08/05 A2997 RMK A01 T00770048  RH  082%=      5-min Rain = 0
KCH1 190503Z 33002KT 08/05 A2997 RMK A01 T00770049  RH  083%=      5-min Rain = 0
KCH1 190504Z 33002KT 08/05 A2997 RMK A01 T00770049  RH  083%=      5-min Rain = 0
KCH1 190505Z 33002KT 08/05 A2997 RMK A01 T00770050  RH  083%=      5-min Rain = 0
KCH1 190506Z 32002KT 08/05 A2997 RMK A01 T00760050  RH  083%=      5-min Rain = 0
KCH1 190507Z 33002KT 08/05 A2997 RMK A01 T00760050  RH  083%=      5-min Rain = 0
KCH1 190508Z 32002KT 08/05 A2997 RMK A01 T00760050  RH  083%=      5-min Rain = 0
KCH1 190509Z 31002KT 08/05 A2997 RMK A01 T00760050  RH  083%=      5-min Rain = 0
KCH1 190510Z 32002KT 08/05 A2997 RMK A01 T00760050  RH  084%=      5-min Rain = 0
KCH1 190511Z 32002KT 08/05 A2997 RMK A01 T00760050  RH  084%=      5-min Rain = 0
KCH1 190512Z 32003KT 08/05 A2997 RMK A01 T00770051  RH  084%=      5-min Rain = 0
KCH1 190513Z 30003KT 08/05 A2997 RMK A01 T00770051  RH  084%=      5-min Rain = 0
KCH1 190514Z 31002KT 08/05 A2997 RMK A01 T00770051  RH  084%=      5-min Rain = 0
KCH1 190515Z 31003KT 08/05 A2997 RMK A01 T00760050  RH  084%=      5-min Rain = 0
KCH1 190516Z 31002KT 08/05 A2997 RMK A01 T00760051  RH  084%=      5-min Rain = 0
KCH1 190517Z 33003KT 08/05 A2997 RMK A01 T00760051  RH  084%=      5-min Rain = 0
KCH1 190518Z 34002KT 08/05 A2997 RMK A01 T00750051  RH  084%=      5-min Rain = 0
KCH1 190519Z 34002KT 08/05 A2997 RMK A01 T00750050  RH  084%=      5-min Rain = 0
KCH1 190520Z 34002KT 07/05 A2997 RMK A01 T00740048  RH  084%=      5-min Rain = 0
KCH1 190521Z 34002KT 07/05 A2997 RMK A01 T00720047  RH  084%=      5-min Rain = 0
KCH1 190522Z 35002KT 07/05 A2997 RMK A01 T00720047  RH  084%=      5-min Rain = 0
KCH1 190523Z 34002KT 07/05 A2997 RMK A01 T00720047  RH  084%=      5-min Rain = 0
KCH1 190524Z 34002KT 07/05 A2997 RMK A01 T00710045  RH  084%=      5-min Rain = 0
KCH1 190525Z 33003KT 07/05 A2997 RMK A01 T00710047  RH  084%=      5-min Rain = 0
KCH1 190526Z 32003KT 07/05 A2997 RMK A01 T00710048  RH  085%=      5-min Rain = 0
KCH1 190527Z 32003KT 07/05 A2997 RMK A01 T00720049  RH  085%=      5-min Rain = 0
KCH1 190528Z 32003KT 07/05 A2997 RMK A01 T00720048  RH  085%=      5-min Rain = 0
KCH1 190529Z 32002KT 07/05 A2997 RMK A01 T00720049  RH  085%=      5-min Rain = 0
KCH1 190530Z 32003KT 07/05 A2997 RMK A01 T00730051  RH  086%=      5-min Rain = 0
KCH1 190531Z 33003KT 07/05 A2997 RMK A01 T00730052  RH  086%=      5-min Rain = 0
KCH1 190532Z 33002KT 07/05 A2997 RMK A01 T00740052  RH  086%=      5-min Rain = 0
KCH1 190533Z 32002KT 07/05 A2997 RMK A01 T00730052  RH  086%=      5-min Rain = 0
KCH1 190534Z 32002KT 07/05 A2997 RMK A01 T00730052  RH  086%=      5-min Rain = 0
KCH1 190535Z 33002KT 07/05 A2997 RMK A01 T00730052  RH  087%=      5-min Rain = 0
KCH1 190536Z 33003KT 07/05 A2997 RMK A01 T00730052  RH  087%=      5-min Rain = 0
KCH1 190537Z 34003KT 07/05 A2997 RMK A01 T00730052  RH  086%=      5-min Rain = 0
KCH1 190538Z 34003KT 07/05 A2997 RMK A01 T00720052  RH  087%=      5-min Rain = 0
KCH1 190539Z 34003KT 07/05 A2997 RMK A01 T00720051  RH  087%=      5-min Rain = 0
KCH1 190540Z 34003KT 07/05 A2997 RMK A01 T00710050  RH  086%=      5-min Rain = 0
KCH1 190541Z 33004KT 07/05 A2997 RMK A01 T00710049  RH  086%=      5-min Rain = 0
KCH1 190542Z 33004KT 07/05 A2997 RMK A01 T00700049  RH  087%=      5-min Rain = 0
KCH1 190543Z 33004KT 07/05 A2997 RMK A01 T00700049  RH  086%=      5-min Rain = 0
KCH1 190544Z 33004KT 07/05 A2997 RMK A01 T00700049  RH  086%=      5-min Rain = 0
KCH1 190545Z 32004KT 07/05 A2997 RMK A01 T00700049  RH  087%=      5-min Rain = 0
KCH1 190546Z 31004KT 07/05 A2997 RMK A01 T00700050  RH  087%=      5-min Rain = 0
KCH1 190547Z 31003KT 07/05 A2997 RMK A01 T00700050  RH  087%=      5-min Rain = 0
KCH1 190548Z 29003KT 07/05 A2997 RMK A01 T00700051  RH  087%=      5-min Rain = 0
KCH1 190549Z 30003KT 07/05 A2997 RMK A01 T00700050  RH  087%=      5-min Rain = 0
KCH1 190550Z 29003KT 07/05 A2997 RMK A01 T00700051  RH  088%=      5-min Rain = 0
KCH1 190551Z 28003KT 07/05 A2997 RMK A01 T00700051  RH  088%=      5-min Rain = 0
KCH1 190552Z 30004KT 07/05 A2997 RMK A01 T00700052  RH  088%=      5-min Rain = 0
KCH1 190553Z 29004KT 07/05 A2997 RMK A01 T00700052  RH  089%=      5-min Rain = 0
KCH1 190554Z 28004KT 07/05 A2997 RMK A01 T00700052  RH  089%=      5-min Rain = 0
KCH1 190555Z 29004KT 07/05 A2997 RMK A01 T00700053  RH  089%=      5-min Rain = 0
KCH1 190556Z 29004KT 07/05 A2997 RMK A01 T00700053  RH  089%=      5-min Rain = 0
KCH1 190557Z 29004KT 07/05 A2997 RMK A01 T00700054  RH  089%=      5-min Rain = 0
KCH1 190558Z 30005KT 07/05 A2997 RMK A01 T00700054  RH  089%=      5-min Rain = 0
KCH1 190559Z 30004KT 07/05 A2997 RMK A01 T00700053  RH  089%=      5-min Rain = 0

Page generated in 0.0843 seconds.